<?xml version="1.0" encoding="UTF-8" standalone="no" ?>
<gpx xmlns="http://www.topografix.com/GPX/1/1" xmlns:xsi="http://www.w3.org/2001/XMLSchema-instance" xsi:schemaLocation="http://www.topografix.com/GPX/1/1 http://www.topografix.com/GPX/1/1/gpx.xsd" version="1.1" creator="VisuGPX - https://www.visugpx.com">
  <metadata>
    <name>La Croix du Bésot</name>
    <desc><![CDATA[Boucle au départ de Vaunaveys. Sortie CAF Valence du 19 mai 2023 organisée par Bernard.]]></desc>
  </metadata>
  <trk>
    <name><![CDATA[2023-05-19 14:33:30]]></name>
    <trkseg>
      <trkpt lat="44.769" lon="5.03297">
        <ele>283.73</ele>
        <time>2023-05-19T06:42:39Z</time>
      </trkpt>
      <trkpt lat="44.76897" lon="5.03303">
        <ele>283.73</ele>
        <time>2023-05-19T06:42:51Z</time>
      </trkpt>
      <trkpt lat="44.76896" lon="5.0331">
        <ele>284.69</ele>
        <time>2023-05-19T06:42:57Z</time>
      </trkpt>
      <trkpt lat="44.76911" lon="5.03323">
        <ele>284.69</ele>
        <time>2023-05-19T06:43:13Z</time>
      </trkpt>
      <trkpt lat="44.76907" lon="5.03333">
        <ele>285.65</ele>
        <time>2023-05-19T06:43:26Z</time>
      </trkpt>
      <trkpt lat="44.76892" lon="5.0333">
        <ele>288.05</ele>
        <time>2023-05-19T06:43:40Z</time>
      </trkpt>
      <trkpt lat="44.76883" lon="5.0333">
        <ele>288.53</ele>
        <time>2023-05-19T06:43:56Z</time>
      </trkpt>
      <trkpt lat="44.76882" lon="5.03339">
        <ele>288.05</ele>
        <time>2023-05-19T06:48:09Z</time>
      </trkpt>
      <trkpt lat="44.76885" lon="5.03352">
        <ele>290.46</ele>
        <time>2023-05-19T06:48:23Z</time>
      </trkpt>
      <trkpt lat="44.76893" lon="5.03366">
        <ele>293.34</ele>
        <time>2023-05-19T06:48:39Z</time>
      </trkpt>
      <trkpt lat="44.76898" lon="5.03378">
        <ele>295.74</ele>
        <time>2023-05-19T06:48:53Z</time>
      </trkpt>
      <trkpt lat="44.76904" lon="5.03392">
        <ele>298.63</ele>
        <time>2023-05-19T06:49:08Z</time>
      </trkpt>
      <trkpt lat="44.7691" lon="5.03405">
        <ele>301.03</ele>
        <time>2023-05-19T06:49:22Z</time>
      </trkpt>
      <trkpt lat="44.76912" lon="5.03413">
        <ele>301.51</ele>
        <time>2023-05-19T06:49:27Z</time>
      </trkpt>
      <trkpt lat="44.76925" lon="5.0343">
        <ele>302.95</ele>
        <time>2023-05-19T06:49:42Z</time>
      </trkpt>
      <trkpt lat="44.76933" lon="5.03444">
        <ele>304.39</ele>
        <time>2023-05-19T06:49:56Z</time>
      </trkpt>
      <trkpt lat="44.76937" lon="5.03466">
        <ele>306.32</ele>
        <time>2023-05-19T06:50:12Z</time>
      </trkpt>
      <trkpt lat="44.76942" lon="5.03482">
        <ele>307.28</ele>
        <time>2023-05-19T06:50:25Z</time>
      </trkpt>
      <trkpt lat="44.76943" lon="5.03485">
        <ele>307.76</ele>
        <time>2023-05-19T06:50:27Z</time>
      </trkpt>
      <trkpt lat="44.76964" lon="5.0349">
        <ele>308.24</ele>
        <time>2023-05-19T06:50:45Z</time>
      </trkpt>
      <trkpt lat="44.76984" lon="5.03496">
        <ele>308.72</ele>
        <time>2023-05-19T06:51:02Z</time>
      </trkpt>
      <trkpt lat="44.77005" lon="5.03503">
        <ele>309.2</ele>
        <time>2023-05-19T06:51:19Z</time>
      </trkpt>
      <trkpt lat="44.77029" lon="5.03504">
        <ele>310.64</ele>
        <time>2023-05-19T06:51:37Z</time>
      </trkpt>
      <trkpt lat="44.77054" lon="5.03505">
        <ele>312.09</ele>
        <time>2023-05-19T06:51:57Z</time>
      </trkpt>
      <trkpt lat="44.77075" lon="5.03504">
        <ele>313.53</ele>
        <time>2023-05-19T06:52:14Z</time>
      </trkpt>
      <trkpt lat="44.77096" lon="5.03507">
        <ele>314.49</ele>
        <time>2023-05-19T06:52:31Z</time>
      </trkpt>
      <trkpt lat="44.77114" lon="5.03511">
        <ele>315.93</ele>
        <time>2023-05-19T06:52:46Z</time>
      </trkpt>
      <trkpt lat="44.77131" lon="5.03516">
        <ele>317.37</ele>
        <time>2023-05-19T06:53:01Z</time>
      </trkpt>
      <trkpt lat="44.7715" lon="5.03522">
        <ele>318.33</ele>
        <time>2023-05-19T06:53:17Z</time>
      </trkpt>
      <trkpt lat="44.77167" lon="5.03528">
        <ele>320.26</ele>
        <time>2023-05-19T06:53:33Z</time>
      </trkpt>
      <trkpt lat="44.77184" lon="5.03536">
        <ele>321.22</ele>
        <time>2023-05-19T06:53:48Z</time>
      </trkpt>
      <trkpt lat="44.77205" lon="5.03549">
        <ele>322.66</ele>
        <time>2023-05-19T06:54:06Z</time>
      </trkpt>
      <trkpt lat="44.77226" lon="5.03558">
        <ele>323.14</ele>
        <time>2023-05-19T06:54:24Z</time>
      </trkpt>
      <trkpt lat="44.77238" lon="5.03575">
        <ele>323.14</ele>
        <time>2023-05-19T06:54:43Z</time>
      </trkpt>
      <trkpt lat="44.77239" lon="5.0358">
        <ele>323.14</ele>
        <time>2023-05-19T06:54:49Z</time>
      </trkpt>
      <trkpt lat="44.77241" lon="5.03598">
        <ele>321.7</ele>
        <time>2023-05-19T06:55:02Z</time>
      </trkpt>
      <trkpt lat="44.77252" lon="5.03627">
        <ele>320.26</ele>
        <time>2023-05-19T06:55:21Z</time>
      </trkpt>
      <trkpt lat="44.77256" lon="5.03662">
        <ele>319.78</ele>
        <time>2023-05-19T06:55:40Z</time>
      </trkpt>
      <trkpt lat="44.77261" lon="5.03696">
        <ele>319.78</ele>
        <time>2023-05-19T06:55:58Z</time>
      </trkpt>
      <trkpt lat="44.77271" lon="5.03716">
        <ele>319.78</ele>
        <time>2023-05-19T06:56:13Z</time>
      </trkpt>
      <trkpt lat="44.77274" lon="5.03721">
        <ele>321.22</ele>
        <time>2023-05-19T06:56:17Z</time>
      </trkpt>
      <trkpt lat="44.77283" lon="5.03732">
        <ele>322.18</ele>
        <time>2023-05-19T06:56:27Z</time>
      </trkpt>
      <trkpt lat="44.77292" lon="5.03741">
        <ele>323.62</ele>
        <time>2023-05-19T06:56:35Z</time>
      </trkpt>
      <trkpt lat="44.77303" lon="5.03763">
        <ele>325.06</ele>
        <time>2023-05-19T06:56:51Z</time>
      </trkpt>
      <trkpt lat="44.7731" lon="5.03788">
        <ele>327.47</ele>
        <time>2023-05-19T06:57:07Z</time>
      </trkpt>
      <trkpt lat="44.77311" lon="5.038">
        <ele>328.43</ele>
        <time>2023-05-19T06:57:14Z</time>
      </trkpt>
      <trkpt lat="44.77312" lon="5.03804">
        <ele>328.43</ele>
        <time>2023-05-19T06:57:16Z</time>
      </trkpt>
      <trkpt lat="44.77315" lon="5.03826">
        <ele>329.39</ele>
        <time>2023-05-19T06:57:30Z</time>
      </trkpt>
      <trkpt lat="44.77317" lon="5.03846">
        <ele>330.83</ele>
        <time>2023-05-19T06:57:43Z</time>
      </trkpt>
      <trkpt lat="44.77318" lon="5.03849">
        <ele>330.83</ele>
        <time>2023-05-19T06:57:45Z</time>
      </trkpt>
      <trkpt lat="44.77318" lon="5.03859">
        <ele>331.79</ele>
        <time>2023-05-19T06:57:50Z</time>
      </trkpt>
      <trkpt lat="44.77317" lon="5.03862">
        <ele>331.79</ele>
        <time>2023-05-19T06:57:52Z</time>
      </trkpt>
      <trkpt lat="44.77318" lon="5.03889">
        <ele>332.75</ele>
        <time>2023-05-19T06:58:07Z</time>
      </trkpt>
      <trkpt lat="44.77319" lon="5.03895">
        <ele>332.75</ele>
        <time>2023-05-19T06:58:10Z</time>
      </trkpt>
      <trkpt lat="44.77325" lon="5.03918">
        <ele>333.71</ele>
        <time>2023-05-19T06:58:25Z</time>
      </trkpt>
      <trkpt lat="44.77325" lon="5.03921">
        <ele>333.71</ele>
        <time>2023-05-19T06:58:27Z</time>
      </trkpt>
      <trkpt lat="44.77326" lon="5.03927">
        <ele>334.2</ele>
        <time>2023-05-19T06:58:30Z</time>
      </trkpt>
      <trkpt lat="44.77327" lon="5.03932">
        <ele>334.2</ele>
        <time>2023-05-19T06:58:33Z</time>
      </trkpt>
      <trkpt lat="44.77332" lon="5.0395">
        <ele>334.68</ele>
        <time>2023-05-19T06:58:46Z</time>
      </trkpt>
      <trkpt lat="44.77333" lon="5.03958">
        <ele>334.68</ele>
        <time>2023-05-19T06:58:50Z</time>
      </trkpt>
      <trkpt lat="44.77334" lon="5.03986">
        <ele>335.64</ele>
        <time>2023-05-19T06:59:05Z</time>
      </trkpt>
      <trkpt lat="44.77333" lon="5.04008">
        <ele>337.08</ele>
        <time>2023-05-19T06:59:19Z</time>
      </trkpt>
      <trkpt lat="44.77334" lon="5.04038">
        <ele>337.08</ele>
        <time>2023-05-19T06:59:35Z</time>
      </trkpt>
      <trkpt lat="44.77335" lon="5.04044">
        <ele>337.08</ele>
        <time>2023-05-19T06:59:38Z</time>
      </trkpt>
      <trkpt lat="44.77336" lon="5.04063">
        <ele>337.08</ele>
        <time>2023-05-19T06:59:48Z</time>
      </trkpt>
      <trkpt lat="44.77335" lon="5.04094">
        <ele>337.08</ele>
        <time>2023-05-19T07:00:04Z</time>
      </trkpt>
      <trkpt lat="44.77331" lon="5.04131">
        <ele>337.56</ele>
        <time>2023-05-19T07:00:22Z</time>
      </trkpt>
      <trkpt lat="44.77329" lon="5.0414">
        <ele>338.04</ele>
        <time>2023-05-19T07:00:27Z</time>
      </trkpt>
      <trkpt lat="44.77325" lon="5.04161">
        <ele>338.52</ele>
        <time>2023-05-19T07:00:39Z</time>
      </trkpt>
      <trkpt lat="44.77325" lon="5.04175">
        <ele>339.48</ele>
        <time>2023-05-19T07:00:49Z</time>
      </trkpt>
      <trkpt lat="44.77325" lon="5.04179">
        <ele>339.48</ele>
        <time>2023-05-19T07:00:51Z</time>
      </trkpt>
      <trkpt lat="44.77325" lon="5.042">
        <ele>340.44</ele>
        <time>2023-05-19T07:01:03Z</time>
      </trkpt>
      <trkpt lat="44.7733" lon="5.04222">
        <ele>341.89</ele>
        <time>2023-05-19T07:01:14Z</time>
      </trkpt>
      <trkpt lat="44.77333" lon="5.04245">
        <ele>342.37</ele>
        <time>2023-05-19T07:01:30Z</time>
      </trkpt>
      <trkpt lat="44.77332" lon="5.04253">
        <ele>342.85</ele>
        <time>2023-05-19T07:01:46Z</time>
      </trkpt>
      <trkpt lat="44.77331" lon="5.04255">
        <ele>342.37</ele>
        <time>2023-05-19T07:02:04Z</time>
      </trkpt>
      <trkpt lat="44.77326" lon="5.0427">
        <ele>343.33</ele>
        <time>2023-05-19T07:04:27Z</time>
      </trkpt>
      <trkpt lat="44.77322" lon="5.04278">
        <ele>343.33</ele>
        <time>2023-05-19T07:04:35Z</time>
      </trkpt>
      <trkpt lat="44.77307" lon="5.04291">
        <ele>345.25</ele>
        <time>2023-05-19T07:04:53Z</time>
      </trkpt>
      <trkpt lat="44.77296" lon="5.04302">
        <ele>346.69</ele>
        <time>2023-05-19T07:05:04Z</time>
      </trkpt>
      <trkpt lat="44.7728" lon="5.04315">
        <ele>347.65</ele>
        <time>2023-05-19T07:05:19Z</time>
      </trkpt>
      <trkpt lat="44.77261" lon="5.04329">
        <ele>349.58</ele>
        <time>2023-05-19T07:05:36Z</time>
      </trkpt>
      <trkpt lat="44.77243" lon="5.04343">
        <ele>351.5</ele>
        <time>2023-05-19T07:05:52Z</time>
      </trkpt>
      <trkpt lat="44.77234" lon="5.04356">
        <ele>352.46</ele>
        <time>2023-05-19T07:06:03Z</time>
      </trkpt>
      <trkpt lat="44.77232" lon="5.04365">
        <ele>353.42</ele>
        <time>2023-05-19T07:06:09Z</time>
      </trkpt>
      <trkpt lat="44.77232" lon="5.04369">
        <ele>353.42</ele>
        <time>2023-05-19T07:06:12Z</time>
      </trkpt>
      <trkpt lat="44.77234" lon="5.04375">
        <ele>353.9</ele>
        <time>2023-05-19T07:06:16Z</time>
      </trkpt>
      <trkpt lat="44.77236" lon="5.04382">
        <ele>354.86</ele>
        <time>2023-05-19T07:06:21Z</time>
      </trkpt>
      <trkpt lat="44.77244" lon="5.04399">
        <ele>356.79</ele>
        <time>2023-05-19T07:06:35Z</time>
      </trkpt>
      <trkpt lat="44.77255" lon="5.04413">
        <ele>359.19</ele>
        <time>2023-05-19T07:06:48Z</time>
      </trkpt>
      <trkpt lat="44.77265" lon="5.04429">
        <ele>360.63</ele>
        <time>2023-05-19T07:07:02Z</time>
      </trkpt>
      <trkpt lat="44.77276" lon="5.04444">
        <ele>363.04</ele>
        <time>2023-05-19T07:07:16Z</time>
      </trkpt>
      <trkpt lat="44.77285" lon="5.04459">
        <ele>364.96</ele>
        <time>2023-05-19T07:07:29Z</time>
      </trkpt>
      <trkpt lat="44.77296" lon="5.04472">
        <ele>366.88</ele>
        <time>2023-05-19T07:07:43Z</time>
      </trkpt>
      <trkpt lat="44.77308" lon="5.04484">
        <ele>368.32</ele>
        <time>2023-05-19T07:07:57Z</time>
      </trkpt>
      <trkpt lat="44.77324" lon="5.04497">
        <ele>371.21</ele>
        <time>2023-05-19T07:08:14Z</time>
      </trkpt>
      <trkpt lat="44.77326" lon="5.045">
        <ele>372.17</ele>
        <time>2023-05-19T07:08:17Z</time>
      </trkpt>
      <trkpt lat="44.77328" lon="5.04509">
        <ele>373.13</ele>
        <time>2023-05-19T07:08:24Z</time>
      </trkpt>
      <trkpt lat="44.77328" lon="5.04515">
        <ele>373.61</ele>
        <time>2023-05-19T07:08:29Z</time>
      </trkpt>
      <trkpt lat="44.77332" lon="5.04535">
        <ele>376.49</ele>
        <time>2023-05-19T07:08:43Z</time>
      </trkpt>
      <trkpt lat="44.77333" lon="5.04538">
        <ele>376.97</ele>
        <time>2023-05-19T07:08:45Z</time>
      </trkpt>
      <trkpt lat="44.77334" lon="5.04546">
        <ele>377.45</ele>
        <time>2023-05-19T07:08:50Z</time>
      </trkpt>
      <trkpt lat="44.77342" lon="5.04563">
        <ele>378.9</ele>
        <time>2023-05-19T07:09:03Z</time>
      </trkpt>
      <trkpt lat="44.77347" lon="5.04573">
        <ele>379.38</ele>
        <time>2023-05-19T07:09:10Z</time>
      </trkpt>
      <trkpt lat="44.77356" lon="5.04594">
        <ele>381.78</ele>
        <time>2023-05-19T07:09:26Z</time>
      </trkpt>
      <trkpt lat="44.77361" lon="5.04612">
        <ele>383.22</ele>
        <time>2023-05-19T07:09:39Z</time>
      </trkpt>
      <trkpt lat="44.77362" lon="5.04619">
        <ele>383.7</ele>
        <time>2023-05-19T07:09:44Z</time>
      </trkpt>
      <trkpt lat="44.77359" lon="5.04625">
        <ele>383.7</ele>
        <time>2023-05-19T07:09:49Z</time>
      </trkpt>
      <trkpt lat="44.77355" lon="5.0463">
        <ele>383.7</ele>
        <time>2023-05-19T07:09:54Z</time>
      </trkpt>
      <trkpt lat="44.77339" lon="5.04638">
        <ele>385.63</ele>
        <time>2023-05-19T07:10:09Z</time>
      </trkpt>
      <trkpt lat="44.77326" lon="5.0465">
        <ele>386.11</ele>
        <time>2023-05-19T07:10:23Z</time>
      </trkpt>
      <trkpt lat="44.77325" lon="5.04656">
        <ele>386.11</ele>
        <time>2023-05-19T07:10:27Z</time>
      </trkpt>
      <trkpt lat="44.77321" lon="5.04684">
        <ele>386.11</ele>
        <time>2023-05-19T07:10:44Z</time>
      </trkpt>
      <trkpt lat="44.7732" lon="5.04689">
        <ele>386.59</ele>
        <time>2023-05-19T07:10:47Z</time>
      </trkpt>
      <trkpt lat="44.7732" lon="5.04696">
        <ele>386.59</ele>
        <time>2023-05-19T07:10:51Z</time>
      </trkpt>
      <trkpt lat="44.77316" lon="5.04719">
        <ele>388.51</ele>
        <time>2023-05-19T07:11:07Z</time>
      </trkpt>
      <trkpt lat="44.77316" lon="5.04725">
        <ele>388.99</ele>
        <time>2023-05-19T07:11:11Z</time>
      </trkpt>
      <trkpt lat="44.77316" lon="5.04737">
        <ele>389.47</ele>
        <time>2023-05-19T07:11:19Z</time>
      </trkpt>
      <trkpt lat="44.77314" lon="5.04747">
        <ele>390.43</ele>
        <time>2023-05-19T07:11:27Z</time>
      </trkpt>
      <trkpt lat="44.77312" lon="5.04757">
        <ele>390.43</ele>
        <time>2023-05-19T07:11:34Z</time>
      </trkpt>
      <trkpt lat="44.77308" lon="5.04787">
        <ele>391.39</ele>
        <time>2023-05-19T07:11:50Z</time>
      </trkpt>
      <trkpt lat="44.77308" lon="5.04796">
        <ele>391.87</ele>
        <time>2023-05-19T07:11:56Z</time>
      </trkpt>
      <trkpt lat="44.77308" lon="5.04815">
        <ele>392.84</ele>
        <time>2023-05-19T07:12:10Z</time>
      </trkpt>
      <trkpt lat="44.77309" lon="5.04823">
        <ele>393.32</ele>
        <time>2023-05-19T07:12:16Z</time>
      </trkpt>
      <trkpt lat="44.77314" lon="5.04836">
        <ele>395.24</ele>
        <time>2023-05-19T07:12:26Z</time>
      </trkpt>
      <trkpt lat="44.77319" lon="5.04853">
        <ele>397.16</ele>
        <time>2023-05-19T07:12:39Z</time>
      </trkpt>
      <trkpt lat="44.77326" lon="5.04864">
        <ele>399.08</ele>
        <time>2023-05-19T07:12:50Z</time>
      </trkpt>
      <trkpt lat="44.77335" lon="5.04872">
        <ele>400.53</ele>
        <time>2023-05-19T07:13:00Z</time>
      </trkpt>
      <trkpt lat="44.77339" lon="5.04878">
        <ele>400.53</ele>
        <time>2023-05-19T07:13:06Z</time>
      </trkpt>
      <trkpt lat="44.77348" lon="5.04893">
        <ele>402.45</ele>
        <time>2023-05-19T07:13:18Z</time>
      </trkpt>
      <trkpt lat="44.77356" lon="5.04906">
        <ele>403.89</ele>
        <time>2023-05-19T07:13:30Z</time>
      </trkpt>
      <trkpt lat="44.77363" lon="5.04916">
        <ele>405.81</ele>
        <time>2023-05-19T07:13:45Z</time>
      </trkpt>
      <trkpt lat="44.77366" lon="5.04919">
        <ele>405.33</ele>
        <time>2023-05-19T07:14:34Z</time>
      </trkpt>
      <trkpt lat="44.77376" lon="5.04931">
        <ele>406.77</ele>
        <time>2023-05-19T07:14:46Z</time>
      </trkpt>
      <trkpt lat="44.77379" lon="5.04933">
        <ele>406.77</ele>
        <time>2023-05-19T07:14:48Z</time>
      </trkpt>
      <trkpt lat="44.77394" lon="5.04948">
        <ele>407.74</ele>
        <time>2023-05-19T07:15:02Z</time>
      </trkpt>
      <trkpt lat="44.77403" lon="5.04958">
        <ele>409.18</ele>
        <time>2023-05-19T07:15:12Z</time>
      </trkpt>
      <trkpt lat="44.77417" lon="5.04966">
        <ele>410.62</ele>
        <time>2023-05-19T07:15:25Z</time>
      </trkpt>
      <trkpt lat="44.7742" lon="5.04969">
        <ele>411.1</ele>
        <time>2023-05-19T07:15:28Z</time>
      </trkpt>
      <trkpt lat="44.77436" lon="5.04983">
        <ele>413.02</ele>
        <time>2023-05-19T07:15:44Z</time>
      </trkpt>
      <trkpt lat="44.77447" lon="5.04991">
        <ele>414.47</ele>
        <time>2023-05-19T07:15:57Z</time>
      </trkpt>
      <trkpt lat="44.77454" lon="5.04997">
        <ele>414.95</ele>
        <time>2023-05-19T07:16:04Z</time>
      </trkpt>
      <trkpt lat="44.77456" lon="5.04997">
        <ele>414.95</ele>
        <time>2023-05-19T07:16:06Z</time>
      </trkpt>
      <trkpt lat="44.77458" lon="5.05">
        <ele>415.43</ele>
        <time>2023-05-19T07:16:08Z</time>
      </trkpt>
      <trkpt lat="44.77469" lon="5.05016">
        <ele>415.43</ele>
        <time>2023-05-19T07:16:21Z</time>
      </trkpt>
      <trkpt lat="44.77479" lon="5.0503">
        <ele>415.43</ele>
        <time>2023-05-19T07:16:33Z</time>
      </trkpt>
      <trkpt lat="44.77479" lon="5.05034">
        <ele>415.43</ele>
        <time>2023-05-19T07:16:35Z</time>
      </trkpt>
      <trkpt lat="44.77493" lon="5.05049">
        <ele>415.91</ele>
        <time>2023-05-19T07:16:50Z</time>
      </trkpt>
      <trkpt lat="44.77505" lon="5.05064">
        <ele>416.39</ele>
        <time>2023-05-19T07:17:05Z</time>
      </trkpt>
      <trkpt lat="44.77514" lon="5.05076">
        <ele>416.87</ele>
        <time>2023-05-19T07:17:16Z</time>
      </trkpt>
      <trkpt lat="44.77526" lon="5.05089">
        <ele>417.83</ele>
        <time>2023-05-19T07:17:30Z</time>
      </trkpt>
      <trkpt lat="44.77537" lon="5.05102">
        <ele>419.27</ele>
        <time>2023-05-19T07:17:43Z</time>
      </trkpt>
      <trkpt lat="44.77545" lon="5.05117">
        <ele>420.71</ele>
        <time>2023-05-19T07:17:56Z</time>
      </trkpt>
      <trkpt lat="44.77558" lon="5.0513">
        <ele>422.16</ele>
        <time>2023-05-19T07:18:09Z</time>
      </trkpt>
      <trkpt lat="44.77569" lon="5.05141">
        <ele>423.6</ele>
        <time>2023-05-19T07:18:20Z</time>
      </trkpt>
      <trkpt lat="44.77582" lon="5.05151">
        <ele>424.08</ele>
        <time>2023-05-19T07:18:33Z</time>
      </trkpt>
      <trkpt lat="44.77588" lon="5.05156">
        <ele>424.56</ele>
        <time>2023-05-19T07:18:38Z</time>
      </trkpt>
      <trkpt lat="44.77592" lon="5.05164">
        <ele>425.04</ele>
        <time>2023-05-19T07:18:44Z</time>
      </trkpt>
      <trkpt lat="44.77596" lon="5.05167">
        <ele>425.52</ele>
        <time>2023-05-19T07:18:47Z</time>
      </trkpt>
      <trkpt lat="44.77598" lon="5.05171">
        <ele>425.52</ele>
        <time>2023-05-19T07:18:50Z</time>
      </trkpt>
      <trkpt lat="44.77604" lon="5.05175">
        <ele>425.52</ele>
        <time>2023-05-19T07:18:55Z</time>
      </trkpt>
      <trkpt lat="44.77613" lon="5.05192">
        <ele>426</ele>
        <time>2023-05-19T07:19:07Z</time>
      </trkpt>
      <trkpt lat="44.77616" lon="5.052">
        <ele>426.48</ele>
        <time>2023-05-19T07:19:12Z</time>
      </trkpt>
      <trkpt lat="44.77628" lon="5.05218">
        <ele>427.44</ele>
        <time>2023-05-19T07:19:26Z</time>
      </trkpt>
      <trkpt lat="44.7764" lon="5.05229">
        <ele>430.33</ele>
        <time>2023-05-19T07:19:41Z</time>
      </trkpt>
      <trkpt lat="44.77645" lon="5.0523">
        <ele>431.29</ele>
        <time>2023-05-19T07:19:46Z</time>
      </trkpt>
      <trkpt lat="44.77647" lon="5.05231">
        <ele>431.77</ele>
        <time>2023-05-19T07:19:49Z</time>
      </trkpt>
      <trkpt lat="44.7765" lon="5.05232">
        <ele>432.73</ele>
        <time>2023-05-19T07:19:52Z</time>
      </trkpt>
      <trkpt lat="44.77654" lon="5.05234">
        <ele>433.21</ele>
        <time>2023-05-19T07:19:56Z</time>
      </trkpt>
      <trkpt lat="44.77666" lon="5.05244">
        <ele>435.61</ele>
        <time>2023-05-19T07:20:11Z</time>
      </trkpt>
      <trkpt lat="44.77673" lon="5.05257">
        <ele>438.98</ele>
        <time>2023-05-19T07:20:25Z</time>
      </trkpt>
      <trkpt lat="44.77681" lon="5.05265">
        <ele>440.9</ele>
        <time>2023-05-19T07:20:38Z</time>
      </trkpt>
      <trkpt lat="44.77688" lon="5.05276">
        <ele>442.82</ele>
        <time>2023-05-19T07:20:51Z</time>
      </trkpt>
      <trkpt lat="44.77691" lon="5.0528">
        <ele>443.31</ele>
        <time>2023-05-19T07:20:55Z</time>
      </trkpt>
      <trkpt lat="44.77699" lon="5.05294">
        <ele>445.23</ele>
        <time>2023-05-19T07:21:08Z</time>
      </trkpt>
      <trkpt lat="44.77699" lon="5.05296">
        <ele>445.23</ele>
        <time>2023-05-19T07:21:09Z</time>
      </trkpt>
      <trkpt lat="44.77705" lon="5.05311">
        <ele>447.63</ele>
        <time>2023-05-19T07:21:23Z</time>
      </trkpt>
      <trkpt lat="44.7771" lon="5.05324">
        <ele>450.52</ele>
        <time>2023-05-19T07:21:36Z</time>
      </trkpt>
      <trkpt lat="44.77715" lon="5.05336">
        <ele>453.4</ele>
        <time>2023-05-19T07:21:50Z</time>
      </trkpt>
      <trkpt lat="44.77719" lon="5.05348">
        <ele>455.8</ele>
        <time>2023-05-19T07:22:04Z</time>
      </trkpt>
      <trkpt lat="44.77724" lon="5.05363">
        <ele>458.21</ele>
        <time>2023-05-19T07:22:18Z</time>
      </trkpt>
      <trkpt lat="44.77728" lon="5.05377">
        <ele>460.13</ele>
        <time>2023-05-19T07:22:31Z</time>
      </trkpt>
      <trkpt lat="44.7773" lon="5.0538">
        <ele>460.61</ele>
        <time>2023-05-19T07:22:34Z</time>
      </trkpt>
      <trkpt lat="44.7774" lon="5.05383">
        <ele>462.05</ele>
        <time>2023-05-19T07:22:44Z</time>
      </trkpt>
      <trkpt lat="44.77755" lon="5.05381">
        <ele>463.49</ele>
        <time>2023-05-19T07:22:59Z</time>
      </trkpt>
      <trkpt lat="44.77772" lon="5.05377">
        <ele>463.97</ele>
        <time>2023-05-19T07:23:15Z</time>
      </trkpt>
      <trkpt lat="44.77789" lon="5.05374">
        <ele>465.42</ele>
        <time>2023-05-19T07:23:30Z</time>
      </trkpt>
      <trkpt lat="44.77805" lon="5.05372">
        <ele>465.9</ele>
        <time>2023-05-19T07:23:45Z</time>
      </trkpt>
      <trkpt lat="44.77822" lon="5.05374">
        <ele>467.82</ele>
        <time>2023-05-19T07:24:00Z</time>
      </trkpt>
      <trkpt lat="44.77836" lon="5.05374">
        <ele>469.26</ele>
        <time>2023-05-19T07:24:13Z</time>
      </trkpt>
      <trkpt lat="44.77849" lon="5.05372">
        <ele>470.7</ele>
        <time>2023-05-19T07:24:25Z</time>
      </trkpt>
      <trkpt lat="44.77853" lon="5.05372">
        <ele>471.66</ele>
        <time>2023-05-19T07:24:30Z</time>
      </trkpt>
      <trkpt lat="44.77867" lon="5.05368">
        <ele>474.07</ele>
        <time>2023-05-19T07:24:45Z</time>
      </trkpt>
      <trkpt lat="44.77877" lon="5.05367">
        <ele>476.47</ele>
        <time>2023-05-19T07:24:58Z</time>
      </trkpt>
      <trkpt lat="44.77888" lon="5.05365">
        <ele>479.35</ele>
        <time>2023-05-19T07:25:13Z</time>
      </trkpt>
      <trkpt lat="44.779" lon="5.0536">
        <ele>481.76</ele>
        <time>2023-05-19T07:25:29Z</time>
      </trkpt>
      <trkpt lat="44.77911" lon="5.05367">
        <ele>484.16</ele>
        <time>2023-05-19T07:25:44Z</time>
      </trkpt>
      <trkpt lat="44.77924" lon="5.05375">
        <ele>487.05</ele>
        <time>2023-05-19T07:26:00Z</time>
      </trkpt>
      <trkpt lat="44.77936" lon="5.05377">
        <ele>489.45</ele>
        <time>2023-05-19T07:26:15Z</time>
      </trkpt>
      <trkpt lat="44.77948" lon="5.05375">
        <ele>491.37</ele>
        <time>2023-05-19T07:26:30Z</time>
      </trkpt>
      <trkpt lat="44.77955" lon="5.05376">
        <ele>492.81</ele>
        <time>2023-05-19T07:26:38Z</time>
      </trkpt>
      <trkpt lat="44.77966" lon="5.05373">
        <ele>495.22</ele>
        <time>2023-05-19T07:26:51Z</time>
      </trkpt>
      <trkpt lat="44.77978" lon="5.0537">
        <ele>497.14</ele>
        <time>2023-05-19T07:27:05Z</time>
      </trkpt>
      <trkpt lat="44.77988" lon="5.05365">
        <ele>500.02</ele>
        <time>2023-05-19T07:27:19Z</time>
      </trkpt>
      <trkpt lat="44.77992" lon="5.05362">
        <ele>500.5</ele>
        <time>2023-05-19T07:27:25Z</time>
      </trkpt>
      <trkpt lat="44.78003" lon="5.0535">
        <ele>502.43</ele>
        <time>2023-05-19T07:27:41Z</time>
      </trkpt>
      <trkpt lat="44.78008" lon="5.05348">
        <ele>503.39</ele>
        <time>2023-05-19T07:27:46Z</time>
      </trkpt>
      <trkpt lat="44.78013" lon="5.05355">
        <ele>502.43</ele>
        <time>2023-05-19T07:28:02Z</time>
      </trkpt>
      <trkpt lat="44.78013" lon="5.05361">
        <ele>502.91</ele>
        <time>2023-05-19T07:28:15Z</time>
      </trkpt>
      <trkpt lat="44.78013" lon="5.05362">
        <ele>502.91</ele>
        <time>2023-05-19T07:29:25Z</time>
      </trkpt>
      <trkpt lat="44.78011" lon="5.0537">
        <ele>502.91</ele>
        <time>2023-05-19T07:29:45Z</time>
      </trkpt>
      <trkpt lat="44.7801" lon="5.05376">
        <ele>502.91</ele>
        <time>2023-05-19T07:30:04Z</time>
      </trkpt>
      <trkpt lat="44.7801" lon="5.05386">
        <ele>502.91</ele>
        <time>2023-05-19T07:30:20Z</time>
      </trkpt>
      <trkpt lat="44.78005" lon="5.05401">
        <ele>502.91</ele>
        <time>2023-05-19T07:30:33Z</time>
      </trkpt>
      <trkpt lat="44.77997" lon="5.05417">
        <ele>503.87</ele>
        <time>2023-05-19T07:30:47Z</time>
      </trkpt>
      <trkpt lat="44.77987" lon="5.05431">
        <ele>503.87</ele>
        <time>2023-05-19T07:31:00Z</time>
      </trkpt>
      <trkpt lat="44.77976" lon="5.05442">
        <ele>504.83</ele>
        <time>2023-05-19T07:31:12Z</time>
      </trkpt>
      <trkpt lat="44.77963" lon="5.05455">
        <ele>504.83</ele>
        <time>2023-05-19T07:31:26Z</time>
      </trkpt>
      <trkpt lat="44.77953" lon="5.05465">
        <ele>506.27</ele>
        <time>2023-05-19T07:31:37Z</time>
      </trkpt>
      <trkpt lat="44.77941" lon="5.05479">
        <ele>508.19</ele>
        <time>2023-05-19T07:31:53Z</time>
      </trkpt>
      <trkpt lat="44.77931" lon="5.05493">
        <ele>510.12</ele>
        <time>2023-05-19T07:32:08Z</time>
      </trkpt>
      <trkpt lat="44.77921" lon="5.05503">
        <ele>512.04</ele>
        <time>2023-05-19T07:32:22Z</time>
      </trkpt>
      <trkpt lat="44.77911" lon="5.05511">
        <ele>512.52</ele>
        <time>2023-05-19T07:32:34Z</time>
      </trkpt>
      <trkpt lat="44.77902" lon="5.05524">
        <ele>513.96</ele>
        <time>2023-05-19T07:32:47Z</time>
      </trkpt>
      <trkpt lat="44.77892" lon="5.05537">
        <ele>514.92</ele>
        <time>2023-05-19T07:32:59Z</time>
      </trkpt>
      <trkpt lat="44.7789" lon="5.05539">
        <ele>515.4</ele>
        <time>2023-05-19T07:33:01Z</time>
      </trkpt>
      <trkpt lat="44.7788" lon="5.0555">
        <ele>516.37</ele>
        <time>2023-05-19T07:33:15Z</time>
      </trkpt>
      <trkpt lat="44.77873" lon="5.05564">
        <ele>517.81</ele>
        <time>2023-05-19T07:33:29Z</time>
      </trkpt>
      <trkpt lat="44.77869" lon="5.05582">
        <ele>518.29</ele>
        <time>2023-05-19T07:33:43Z</time>
      </trkpt>
      <trkpt lat="44.7787" lon="5.05603">
        <ele>518.77</ele>
        <time>2023-05-19T07:33:57Z</time>
      </trkpt>
      <trkpt lat="44.77866" lon="5.05618">
        <ele>519.25</ele>
        <time>2023-05-19T07:34:08Z</time>
      </trkpt>
      <trkpt lat="44.77849" lon="5.0563">
        <ele>519.73</ele>
        <time>2023-05-19T07:34:25Z</time>
      </trkpt>
      <trkpt lat="44.77835" lon="5.05638">
        <ele>519.73</ele>
        <time>2023-05-19T07:34:40Z</time>
      </trkpt>
      <trkpt lat="44.7783" lon="5.0564">
        <ele>519.73</ele>
        <time>2023-05-19T07:34:44Z</time>
      </trkpt>
      <trkpt lat="44.77817" lon="5.05652">
        <ele>520.21</ele>
        <time>2023-05-19T07:34:58Z</time>
      </trkpt>
      <trkpt lat="44.77807" lon="5.05666">
        <ele>522.61</ele>
        <time>2023-05-19T07:35:14Z</time>
      </trkpt>
      <trkpt lat="44.77802" lon="5.05682">
        <ele>523.58</ele>
        <time>2023-05-19T07:35:25Z</time>
      </trkpt>
      <trkpt lat="44.77794" lon="5.05701">
        <ele>525.02</ele>
        <time>2023-05-19T07:35:39Z</time>
      </trkpt>
      <trkpt lat="44.7779" lon="5.0571">
        <ele>525.5</ele>
        <time>2023-05-19T07:35:47Z</time>
      </trkpt>
      <trkpt lat="44.77779" lon="5.05735">
        <ele>526.46</ele>
        <time>2023-05-19T07:36:05Z</time>
      </trkpt>
      <trkpt lat="44.77774" lon="5.05756">
        <ele>526.46</ele>
        <time>2023-05-19T07:36:20Z</time>
      </trkpt>
      <trkpt lat="44.77771" lon="5.05774">
        <ele>527.9</ele>
        <time>2023-05-19T07:36:34Z</time>
      </trkpt>
      <trkpt lat="44.77769" lon="5.05782">
        <ele>528.38</ele>
        <time>2023-05-19T07:36:38Z</time>
      </trkpt>
      <trkpt lat="44.77765" lon="5.05801">
        <ele>529.82</ele>
        <time>2023-05-19T07:36:50Z</time>
      </trkpt>
      <trkpt lat="44.77763" lon="5.05817">
        <ele>532.71</ele>
        <time>2023-05-19T07:37:03Z</time>
      </trkpt>
      <trkpt lat="44.77761" lon="5.05833">
        <ele>534.15</ele>
        <time>2023-05-19T07:37:14Z</time>
      </trkpt>
      <trkpt lat="44.77761" lon="5.05852">
        <ele>534.63</ele>
        <time>2023-05-19T07:37:28Z</time>
      </trkpt>
      <trkpt lat="44.77769" lon="5.05875">
        <ele>534.63</ele>
        <time>2023-05-19T07:37:44Z</time>
      </trkpt>
      <trkpt lat="44.77773" lon="5.05896">
        <ele>534.63</ele>
        <time>2023-05-19T07:37:57Z</time>
      </trkpt>
      <trkpt lat="44.77779" lon="5.05912">
        <ele>536.07</ele>
        <time>2023-05-19T07:38:10Z</time>
      </trkpt>
      <trkpt lat="44.7779" lon="5.05928">
        <ele>538.96</ele>
        <time>2023-05-19T07:38:24Z</time>
      </trkpt>
      <trkpt lat="44.77791" lon="5.05931">
        <ele>539.44</ele>
        <time>2023-05-19T07:38:26Z</time>
      </trkpt>
      <trkpt lat="44.77794" lon="5.05942">
        <ele>539.92</ele>
        <time>2023-05-19T07:38:34Z</time>
      </trkpt>
      <trkpt lat="44.77784" lon="5.05955">
        <ele>541.36</ele>
        <time>2023-05-19T07:38:48Z</time>
      </trkpt>
      <trkpt lat="44.77777" lon="5.05976">
        <ele>540.88</ele>
        <time>2023-05-19T07:39:03Z</time>
      </trkpt>
      <trkpt lat="44.77777" lon="5.05977">
        <ele>540.88</ele>
        <time>2023-05-19T07:39:04Z</time>
      </trkpt>
      <trkpt lat="44.77779" lon="5.05992">
        <ele>538.96</ele>
        <time>2023-05-19T07:39:14Z</time>
      </trkpt>
      <trkpt lat="44.77788" lon="5.06009">
        <ele>538.48</ele>
        <time>2023-05-19T07:39:26Z</time>
      </trkpt>
      <trkpt lat="44.77783" lon="5.06029">
        <ele>539.44</ele>
        <time>2023-05-19T07:39:40Z</time>
      </trkpt>
      <trkpt lat="44.77781" lon="5.06034">
        <ele>539.44</ele>
        <time>2023-05-19T07:39:44Z</time>
      </trkpt>
      <trkpt lat="44.77778" lon="5.06054">
        <ele>540.4</ele>
        <time>2023-05-19T07:39:58Z</time>
      </trkpt>
      <trkpt lat="44.77777" lon="5.06062">
        <ele>540.88</ele>
        <time>2023-05-19T07:40:03Z</time>
      </trkpt>
      <trkpt lat="44.77774" lon="5.0608">
        <ele>542.8</ele>
        <time>2023-05-19T07:40:14Z</time>
      </trkpt>
      <trkpt lat="44.77774" lon="5.06089">
        <ele>542.8</ele>
        <time>2023-05-19T07:40:20Z</time>
      </trkpt>
      <trkpt lat="44.77772" lon="5.06102">
        <ele>543.28</ele>
        <time>2023-05-19T07:40:29Z</time>
      </trkpt>
      <trkpt lat="44.77775" lon="5.06124">
        <ele>543.28</ele>
        <time>2023-05-19T07:40:43Z</time>
      </trkpt>
      <trkpt lat="44.77781" lon="5.06145">
        <ele>543.28</ele>
        <time>2023-05-19T07:40:57Z</time>
      </trkpt>
      <trkpt lat="44.77792" lon="5.06165">
        <ele>544.24</ele>
        <time>2023-05-19T07:41:13Z</time>
      </trkpt>
      <trkpt lat="44.77798" lon="5.06179">
        <ele>543.76</ele>
        <time>2023-05-19T07:41:22Z</time>
      </trkpt>
      <trkpt lat="44.77797" lon="5.06185">
        <ele>543.76</ele>
        <time>2023-05-19T07:41:26Z</time>
      </trkpt>
      <trkpt lat="44.77796" lon="5.0619">
        <ele>543.76</ele>
        <time>2023-05-19T07:41:30Z</time>
      </trkpt>
      <trkpt lat="44.77794" lon="5.06207">
        <ele>545.2</ele>
        <time>2023-05-19T07:41:42Z</time>
      </trkpt>
      <trkpt lat="44.77788" lon="5.06215">
        <ele>548.09</ele>
        <time>2023-05-19T07:41:57Z</time>
      </trkpt>
      <trkpt lat="44.77781" lon="5.06217">
        <ele>549.53</ele>
        <time>2023-05-19T07:42:08Z</time>
      </trkpt>
      <trkpt lat="44.77765" lon="5.06229">
        <ele>550.97</ele>
        <time>2023-05-19T07:42:25Z</time>
      </trkpt>
      <trkpt lat="44.77761" lon="5.06234">
        <ele>550.97</ele>
        <time>2023-05-19T07:42:29Z</time>
      </trkpt>
      <trkpt lat="44.77751" lon="5.06239">
        <ele>551.93</ele>
        <time>2023-05-19T07:42:39Z</time>
      </trkpt>
      <trkpt lat="44.77735" lon="5.06236">
        <ele>552.41</ele>
        <time>2023-05-19T07:42:53Z</time>
      </trkpt>
      <trkpt lat="44.77723" lon="5.06225">
        <ele>554.82</ele>
        <time>2023-05-19T07:43:08Z</time>
      </trkpt>
      <trkpt lat="44.77711" lon="5.06217">
        <ele>555.78</ele>
        <time>2023-05-19T07:43:22Z</time>
      </trkpt>
      <trkpt lat="44.77701" lon="5.06223">
        <ele>557.7</ele>
        <time>2023-05-19T07:43:35Z</time>
      </trkpt>
      <trkpt lat="44.777" lon="5.06227">
        <ele>558.66</ele>
        <time>2023-05-19T07:43:38Z</time>
      </trkpt>
      <trkpt lat="44.7769" lon="5.06243">
        <ele>560.59</ele>
        <time>2023-05-19T07:43:52Z</time>
      </trkpt>
      <trkpt lat="44.77686" lon="5.06254">
        <ele>563.47</ele>
        <time>2023-05-19T07:44:03Z</time>
      </trkpt>
      <trkpt lat="44.77682" lon="5.06267">
        <ele>564.91</ele>
        <time>2023-05-19T07:44:15Z</time>
      </trkpt>
      <trkpt lat="44.77675" lon="5.06278">
        <ele>567.8</ele>
        <time>2023-05-19T07:44:31Z</time>
      </trkpt>
      <trkpt lat="44.77669" lon="5.06288">
        <ele>570.2</ele>
        <time>2023-05-19T07:44:44Z</time>
      </trkpt>
      <trkpt lat="44.77662" lon="5.06302">
        <ele>572.6</ele>
        <time>2023-05-19T07:44:57Z</time>
      </trkpt>
      <trkpt lat="44.77661" lon="5.06304">
        <ele>573.08</ele>
        <time>2023-05-19T07:45:00Z</time>
      </trkpt>
      <trkpt lat="44.77653" lon="5.06313">
        <ele>575.97</ele>
        <time>2023-05-19T07:45:14Z</time>
      </trkpt>
      <trkpt lat="44.77644" lon="5.06323">
        <ele>578.37</ele>
        <time>2023-05-19T07:45:28Z</time>
      </trkpt>
      <trkpt lat="44.77636" lon="5.0633">
        <ele>579.33</ele>
        <time>2023-05-19T07:45:40Z</time>
      </trkpt>
      <trkpt lat="44.77623" lon="5.06339">
        <ele>582.22</ele>
        <time>2023-05-19T07:45:56Z</time>
      </trkpt>
      <trkpt lat="44.77618" lon="5.06343">
        <ele>583.18</ele>
        <time>2023-05-19T07:46:02Z</time>
      </trkpt>
      <trkpt lat="44.77607" lon="5.06352">
        <ele>585.58</ele>
        <time>2023-05-19T07:46:18Z</time>
      </trkpt>
      <trkpt lat="44.77598" lon="5.06357">
        <ele>587.98</ele>
        <time>2023-05-19T07:46:32Z</time>
      </trkpt>
      <trkpt lat="44.77586" lon="5.06363">
        <ele>590.39</ele>
        <time>2023-05-19T07:46:46Z</time>
      </trkpt>
      <trkpt lat="44.77573" lon="5.06366">
        <ele>593.27</ele>
        <time>2023-05-19T07:47:03Z</time>
      </trkpt>
      <trkpt lat="44.7756" lon="5.06369">
        <ele>595.19</ele>
        <time>2023-05-19T07:47:17Z</time>
      </trkpt>
      <trkpt lat="44.77552" lon="5.0637">
        <ele>596.15</ele>
        <time>2023-05-19T07:47:25Z</time>
      </trkpt>
      <trkpt lat="44.77539" lon="5.06372">
        <ele>598.08</ele>
        <time>2023-05-19T07:47:39Z</time>
      </trkpt>
      <trkpt lat="44.77525" lon="5.06368">
        <ele>601.44</ele>
        <time>2023-05-19T07:47:54Z</time>
      </trkpt>
      <trkpt lat="44.77515" lon="5.0636">
        <ele>603.85</ele>
        <time>2023-05-19T07:48:07Z</time>
      </trkpt>
      <trkpt lat="44.77514" lon="5.06359">
        <ele>603.85</ele>
        <time>2023-05-19T07:48:08Z</time>
      </trkpt>
      <trkpt lat="44.77505" lon="5.06354">
        <ele>606.25</ele>
        <time>2023-05-19T07:48:20Z</time>
      </trkpt>
      <trkpt lat="44.77499" lon="5.06363">
        <ele>607.69</ele>
        <time>2023-05-19T07:48:31Z</time>
      </trkpt>
      <trkpt lat="44.77498" lon="5.06381">
        <ele>608.17</ele>
        <time>2023-05-19T07:48:46Z</time>
      </trkpt>
      <trkpt lat="44.77497" lon="5.06389">
        <ele>608.17</ele>
        <time>2023-05-19T07:49:00Z</time>
      </trkpt>
      <trkpt lat="44.77494" lon="5.06388">
        <ele>608.65</ele>
        <time>2023-05-19T07:56:05Z</time>
      </trkpt>
      <trkpt lat="44.77494" lon="5.06386">
        <ele>608.65</ele>
        <time>2023-05-19T07:56:32Z</time>
      </trkpt>
      <trkpt lat="44.77491" lon="5.0638">
        <ele>608.65</ele>
        <time>2023-05-19T07:56:57Z</time>
      </trkpt>
      <trkpt lat="44.77484" lon="5.06365">
        <ele>608.65</ele>
        <time>2023-05-19T07:57:12Z</time>
      </trkpt>
      <trkpt lat="44.77475" lon="5.06349">
        <ele>609.13</ele>
        <time>2023-05-19T07:57:27Z</time>
      </trkpt>
      <trkpt lat="44.77473" lon="5.06348">
        <ele>609.13</ele>
        <time>2023-05-19T07:57:29Z</time>
      </trkpt>
      <trkpt lat="44.77471" lon="5.06346">
        <ele>609.13</ele>
        <time>2023-05-19T07:57:31Z</time>
      </trkpt>
      <trkpt lat="44.77466" lon="5.06347">
        <ele>609.13</ele>
        <time>2023-05-19T07:57:35Z</time>
      </trkpt>
      <trkpt lat="44.77454" lon="5.06336">
        <ele>607.69</ele>
        <time>2023-05-19T07:57:47Z</time>
      </trkpt>
      <trkpt lat="44.77438" lon="5.06324">
        <ele>606.25</ele>
        <time>2023-05-19T07:58:03Z</time>
      </trkpt>
      <trkpt lat="44.7743" lon="5.06318">
        <ele>605.29</ele>
        <time>2023-05-19T07:58:11Z</time>
      </trkpt>
      <trkpt lat="44.77421" lon="5.06318">
        <ele>605.29</ele>
        <time>2023-05-19T07:58:18Z</time>
      </trkpt>
      <trkpt lat="44.77406" lon="5.06319">
        <ele>603.36</ele>
        <time>2023-05-19T07:58:31Z</time>
      </trkpt>
      <trkpt lat="44.77389" lon="5.06323">
        <ele>600.48</ele>
        <time>2023-05-19T07:58:47Z</time>
      </trkpt>
      <trkpt lat="44.77373" lon="5.06315">
        <ele>598.08</ele>
        <time>2023-05-19T07:59:01Z</time>
      </trkpt>
      <trkpt lat="44.77367" lon="5.06313">
        <ele>596.64</ele>
        <time>2023-05-19T07:59:06Z</time>
      </trkpt>
      <trkpt lat="44.77361" lon="5.06313">
        <ele>595.67</ele>
        <time>2023-05-19T07:59:11Z</time>
      </trkpt>
      <trkpt lat="44.77358" lon="5.06313">
        <ele>595.67</ele>
        <time>2023-05-19T07:59:14Z</time>
      </trkpt>
      <trkpt lat="44.77339" lon="5.06305">
        <ele>593.27</ele>
        <time>2023-05-19T07:59:32Z</time>
      </trkpt>
      <trkpt lat="44.77338" lon="5.06305">
        <ele>593.27</ele>
        <time>2023-05-19T07:59:33Z</time>
      </trkpt>
      <trkpt lat="44.7732" lon="5.06304">
        <ele>591.83</ele>
        <time>2023-05-19T07:59:47Z</time>
      </trkpt>
      <trkpt lat="44.773" lon="5.06298">
        <ele>590.87</ele>
        <time>2023-05-19T08:00:02Z</time>
      </trkpt>
      <trkpt lat="44.77285" lon="5.06296">
        <ele>589.91</ele>
        <time>2023-05-19T08:00:14Z</time>
      </trkpt>
      <trkpt lat="44.7728" lon="5.06296">
        <ele>589.91</ele>
        <time>2023-05-19T08:00:18Z</time>
      </trkpt>
      <trkpt lat="44.77263" lon="5.06296">
        <ele>587.5</ele>
        <time>2023-05-19T08:00:34Z</time>
      </trkpt>
      <trkpt lat="44.77249" lon="5.063">
        <ele>585.58</ele>
        <time>2023-05-19T08:00:47Z</time>
      </trkpt>
      <trkpt lat="44.7724" lon="5.06305">
        <ele>584.62</ele>
        <time>2023-05-19T08:00:56Z</time>
      </trkpt>
      <trkpt lat="44.77237" lon="5.06305">
        <ele>584.14</ele>
        <time>2023-05-19T08:00:58Z</time>
      </trkpt>
      <trkpt lat="44.77232" lon="5.06308">
        <ele>582.7</ele>
        <time>2023-05-19T08:01:04Z</time>
      </trkpt>
      <trkpt lat="44.77227" lon="5.0631">
        <ele>582.7</ele>
        <time>2023-05-19T08:01:07Z</time>
      </trkpt>
      <trkpt lat="44.77207" lon="5.06315">
        <ele>581.73</ele>
        <time>2023-05-19T08:01:22Z</time>
      </trkpt>
      <trkpt lat="44.77195" lon="5.06317">
        <ele>581.25</ele>
        <time>2023-05-19T08:01:32Z</time>
      </trkpt>
      <trkpt lat="44.77193" lon="5.06318">
        <ele>581.25</ele>
        <time>2023-05-19T08:01:34Z</time>
      </trkpt>
      <trkpt lat="44.77185" lon="5.0632">
        <ele>580.77</ele>
        <time>2023-05-19T08:01:41Z</time>
      </trkpt>
      <trkpt lat="44.7718" lon="5.06318">
        <ele>580.29</ele>
        <time>2023-05-19T08:01:45Z</time>
      </trkpt>
      <trkpt lat="44.77175" lon="5.06319">
        <ele>579.81</ele>
        <time>2023-05-19T08:01:49Z</time>
      </trkpt>
      <trkpt lat="44.7715" lon="5.0632">
        <ele>577.89</ele>
        <time>2023-05-19T08:02:07Z</time>
      </trkpt>
      <trkpt lat="44.77129" lon="5.06316">
        <ele>577.41</ele>
        <time>2023-05-19T08:02:23Z</time>
      </trkpt>
      <trkpt lat="44.77107" lon="5.06308">
        <ele>576.93</ele>
        <time>2023-05-19T08:02:40Z</time>
      </trkpt>
      <trkpt lat="44.771" lon="5.06303">
        <ele>576.93</ele>
        <time>2023-05-19T08:02:46Z</time>
      </trkpt>
      <trkpt lat="44.77087" lon="5.06299">
        <ele>575.97</ele>
        <time>2023-05-19T08:02:57Z</time>
      </trkpt>
      <trkpt lat="44.77083" lon="5.06293">
        <ele>575.97</ele>
        <time>2023-05-19T08:03:02Z</time>
      </trkpt>
      <trkpt lat="44.77057" lon="5.06283">
        <ele>574.04</ele>
        <time>2023-05-19T08:03:23Z</time>
      </trkpt>
      <trkpt lat="44.7705" lon="5.06283">
        <ele>573.08</ele>
        <time>2023-05-19T08:03:29Z</time>
      </trkpt>
      <trkpt lat="44.77031" lon="5.06276">
        <ele>572.6</ele>
        <time>2023-05-19T08:03:45Z</time>
      </trkpt>
      <trkpt lat="44.77017" lon="5.06268">
        <ele>571.16</ele>
        <time>2023-05-19T08:03:59Z</time>
      </trkpt>
      <trkpt lat="44.77013" lon="5.06266">
        <ele>571.16</ele>
        <time>2023-05-19T08:04:02Z</time>
      </trkpt>
      <trkpt lat="44.77002" lon="5.06254">
        <ele>570.2</ele>
        <time>2023-05-19T08:04:12Z</time>
      </trkpt>
      <trkpt lat="44.76982" lon="5.06233">
        <ele>567.8</ele>
        <time>2023-05-19T08:04:31Z</time>
      </trkpt>
      <trkpt lat="44.7697" lon="5.06221">
        <ele>567.32</ele>
        <time>2023-05-19T08:04:43Z</time>
      </trkpt>
      <trkpt lat="44.7696" lon="5.06201">
        <ele>565.87</ele>
        <time>2023-05-19T08:04:57Z</time>
      </trkpt>
      <trkpt lat="44.76953" lon="5.06179">
        <ele>564.91</ele>
        <time>2023-05-19T08:05:11Z</time>
      </trkpt>
      <trkpt lat="44.76941" lon="5.06156">
        <ele>562.03</ele>
        <time>2023-05-19T08:05:28Z</time>
      </trkpt>
      <trkpt lat="44.76923" lon="5.06154">
        <ele>560.59</ele>
        <time>2023-05-19T08:05:44Z</time>
      </trkpt>
      <trkpt lat="44.76904" lon="5.06153">
        <ele>560.11</ele>
        <time>2023-05-19T08:06:01Z</time>
      </trkpt>
      <trkpt lat="44.76882" lon="5.06151">
        <ele>560.11</ele>
        <time>2023-05-19T08:06:18Z</time>
      </trkpt>
      <trkpt lat="44.76881" lon="5.06151">
        <ele>560.11</ele>
        <time>2023-05-19T08:06:19Z</time>
      </trkpt>
      <trkpt lat="44.76862" lon="5.06146">
        <ele>559.14</ele>
        <time>2023-05-19T08:06:35Z</time>
      </trkpt>
      <trkpt lat="44.7686" lon="5.06146">
        <ele>559.14</ele>
        <time>2023-05-19T08:06:36Z</time>
      </trkpt>
      <trkpt lat="44.76844" lon="5.06146">
        <ele>557.7</ele>
        <time>2023-05-19T08:06:51Z</time>
      </trkpt>
      <trkpt lat="44.76827" lon="5.06136">
        <ele>555.78</ele>
        <time>2023-05-19T08:07:08Z</time>
      </trkpt>
      <trkpt lat="44.76825" lon="5.06135">
        <ele>555.78</ele>
        <time>2023-05-19T08:07:10Z</time>
      </trkpt>
      <trkpt lat="44.76821" lon="5.06136">
        <ele>555.3</ele>
        <time>2023-05-19T08:07:14Z</time>
      </trkpt>
      <trkpt lat="44.7681" lon="5.06139">
        <ele>552.41</ele>
        <time>2023-05-19T08:07:29Z</time>
      </trkpt>
      <trkpt lat="44.76794" lon="5.06144">
        <ele>549.05</ele>
        <time>2023-05-19T08:07:46Z</time>
      </trkpt>
      <trkpt lat="44.7678" lon="5.06148">
        <ele>546.65</ele>
        <time>2023-05-19T08:08:02Z</time>
      </trkpt>
      <trkpt lat="44.76771" lon="5.06152">
        <ele>543.28</ele>
        <time>2023-05-19T08:08:14Z</time>
      </trkpt>
      <trkpt lat="44.76762" lon="5.06158">
        <ele>540.4</ele>
        <time>2023-05-19T08:08:30Z</time>
      </trkpt>
      <trkpt lat="44.76758" lon="5.06159">
        <ele>539.92</ele>
        <time>2023-05-19T08:08:33Z</time>
      </trkpt>
      <trkpt lat="44.76742" lon="5.06167">
        <ele>537.51</ele>
        <time>2023-05-19T08:08:49Z</time>
      </trkpt>
      <trkpt lat="44.7674" lon="5.06167">
        <ele>537.03</ele>
        <time>2023-05-19T08:08:50Z</time>
      </trkpt>
      <trkpt lat="44.76725" lon="5.06171">
        <ele>535.59</ele>
        <time>2023-05-19T08:09:05Z</time>
      </trkpt>
      <trkpt lat="44.76705" lon="5.06175">
        <ele>534.15</ele>
        <time>2023-05-19T08:09:22Z</time>
      </trkpt>
      <trkpt lat="44.76703" lon="5.06175">
        <ele>534.15</ele>
        <time>2023-05-19T08:09:23Z</time>
      </trkpt>
      <trkpt lat="44.76679" lon="5.06177">
        <ele>532.23</ele>
        <time>2023-05-19T08:09:41Z</time>
      </trkpt>
      <trkpt lat="44.76662" lon="5.06174">
        <ele>531.75</ele>
        <time>2023-05-19T08:09:54Z</time>
      </trkpt>
      <trkpt lat="44.7664" lon="5.06174">
        <ele>531.75</ele>
        <time>2023-05-19T08:10:12Z</time>
      </trkpt>
      <trkpt lat="44.76622" lon="5.06171">
        <ele>531.75</ele>
        <time>2023-05-19T08:10:26Z</time>
      </trkpt>
      <trkpt lat="44.7661" lon="5.0617">
        <ele>531.27</ele>
        <time>2023-05-19T08:10:39Z</time>
      </trkpt>
      <trkpt lat="44.76596" lon="5.06167">
        <ele>530.3</ele>
        <time>2023-05-19T08:10:50Z</time>
      </trkpt>
      <trkpt lat="44.76572" lon="5.06167">
        <ele>529.82</ele>
        <time>2023-05-19T08:11:08Z</time>
      </trkpt>
      <trkpt lat="44.76553" lon="5.06168">
        <ele>528.86</ele>
        <time>2023-05-19T08:11:25Z</time>
      </trkpt>
      <trkpt lat="44.76547" lon="5.06162">
        <ele>527.9</ele>
        <time>2023-05-19T08:11:32Z</time>
      </trkpt>
      <trkpt lat="44.76539" lon="5.06158">
        <ele>525.5</ele>
        <time>2023-05-19T08:11:40Z</time>
      </trkpt>
      <trkpt lat="44.76523" lon="5.06153">
        <ele>521.65</ele>
        <time>2023-05-19T08:11:56Z</time>
      </trkpt>
      <trkpt lat="44.76508" lon="5.06142">
        <ele>518.29</ele>
        <time>2023-05-19T08:12:12Z</time>
      </trkpt>
      <trkpt lat="44.76505" lon="5.06139">
        <ele>518.29</ele>
        <time>2023-05-19T08:12:15Z</time>
      </trkpt>
      <trkpt lat="44.76502" lon="5.06136">
        <ele>516.85</ele>
        <time>2023-05-19T08:12:19Z</time>
      </trkpt>
      <trkpt lat="44.76484" lon="5.06118">
        <ele>514.44</ele>
        <time>2023-05-19T08:12:37Z</time>
      </trkpt>
      <trkpt lat="44.76468" lon="5.06108">
        <ele>512.52</ele>
        <time>2023-05-19T08:12:53Z</time>
      </trkpt>
      <trkpt lat="44.76451" lon="5.06097">
        <ele>511.56</ele>
        <time>2023-05-19T08:13:09Z</time>
      </trkpt>
      <trkpt lat="44.76441" lon="5.06091">
        <ele>510.12</ele>
        <time>2023-05-19T08:13:18Z</time>
      </trkpt>
      <trkpt lat="44.76418" lon="5.06084">
        <ele>507.71</ele>
        <time>2023-05-19T08:13:37Z</time>
      </trkpt>
      <trkpt lat="44.76398" lon="5.06076">
        <ele>506.27</ele>
        <time>2023-05-19T08:13:54Z</time>
      </trkpt>
      <trkpt lat="44.76383" lon="5.06072">
        <ele>505.31</ele>
        <time>2023-05-19T08:14:08Z</time>
      </trkpt>
      <trkpt lat="44.76362" lon="5.06074">
        <ele>502.91</ele>
        <time>2023-05-19T08:14:27Z</time>
      </trkpt>
      <trkpt lat="44.76351" lon="5.06071">
        <ele>501.95</ele>
        <time>2023-05-19T08:14:37Z</time>
      </trkpt>
      <trkpt lat="44.76332" lon="5.06075">
        <ele>499.54</ele>
        <time>2023-05-19T08:14:52Z</time>
      </trkpt>
      <trkpt lat="44.76319" lon="5.06076">
        <ele>496.66</ele>
        <time>2023-05-19T08:15:05Z</time>
      </trkpt>
      <trkpt lat="44.76305" lon="5.0608">
        <ele>493.77</ele>
        <time>2023-05-19T08:15:18Z</time>
      </trkpt>
      <trkpt lat="44.76294" lon="5.06084">
        <ele>490.89</ele>
        <time>2023-05-19T08:15:28Z</time>
      </trkpt>
      <trkpt lat="44.7628" lon="5.06091">
        <ele>488.01</ele>
        <time>2023-05-19T08:15:41Z</time>
      </trkpt>
      <trkpt lat="44.76268" lon="5.06095">
        <ele>484.64</ele>
        <time>2023-05-19T08:15:54Z</time>
      </trkpt>
      <trkpt lat="44.76252" lon="5.06102">
        <ele>481.76</ele>
        <time>2023-05-19T08:16:08Z</time>
      </trkpt>
      <trkpt lat="44.76233" lon="5.06111">
        <ele>478.87</ele>
        <time>2023-05-19T08:16:24Z</time>
      </trkpt>
      <trkpt lat="44.76215" lon="5.06118">
        <ele>475.51</ele>
        <time>2023-05-19T08:16:39Z</time>
      </trkpt>
      <trkpt lat="44.76196" lon="5.06124">
        <ele>473.59</ele>
        <time>2023-05-19T08:16:56Z</time>
      </trkpt>
      <trkpt lat="44.76178" lon="5.0613">
        <ele>470.7</ele>
        <time>2023-05-19T08:17:12Z</time>
      </trkpt>
      <trkpt lat="44.76154" lon="5.0614">
        <ele>468.3</ele>
        <time>2023-05-19T08:17:32Z</time>
      </trkpt>
      <trkpt lat="44.76136" lon="5.06143">
        <ele>466.86</ele>
        <time>2023-05-19T08:17:47Z</time>
      </trkpt>
      <trkpt lat="44.76117" lon="5.06149">
        <ele>465.42</ele>
        <time>2023-05-19T08:18:04Z</time>
      </trkpt>
      <trkpt lat="44.76103" lon="5.06156">
        <ele>464.45</ele>
        <time>2023-05-19T08:18:22Z</time>
      </trkpt>
      <trkpt lat="44.76097" lon="5.06157">
        <ele>464.93</ele>
        <time>2023-05-19T08:19:00Z</time>
      </trkpt>
      <trkpt lat="44.76095" lon="5.06156">
        <ele>464.93</ele>
        <time>2023-05-19T08:19:17Z</time>
      </trkpt>
      <trkpt lat="44.76092" lon="5.06158">
        <ele>463.49</ele>
        <time>2023-05-19T08:19:35Z</time>
      </trkpt>
      <trkpt lat="44.76089" lon="5.06159">
        <ele>465.42</ele>
        <time>2023-05-19T08:19:51Z</time>
      </trkpt>
      <trkpt lat="44.76075" lon="5.06164">
        <ele>465.42</ele>
        <time>2023-05-19T08:20:04Z</time>
      </trkpt>
      <trkpt lat="44.76068" lon="5.06166">
        <ele>465.42</ele>
        <time>2023-05-19T08:20:09Z</time>
      </trkpt>
      <trkpt lat="44.76047" lon="5.06164">
        <ele>465.42</ele>
        <time>2023-05-19T08:20:27Z</time>
      </trkpt>
      <trkpt lat="44.76043" lon="5.06164">
        <ele>465.42</ele>
        <time>2023-05-19T08:20:30Z</time>
      </trkpt>
      <trkpt lat="44.76021" lon="5.06164">
        <ele>465.9</ele>
        <time>2023-05-19T08:20:48Z</time>
      </trkpt>
      <trkpt lat="44.76001" lon="5.06165">
        <ele>466.86</ele>
        <time>2023-05-19T08:21:05Z</time>
      </trkpt>
      <trkpt lat="44.75993" lon="5.06165">
        <ele>466.86</ele>
        <time>2023-05-19T08:21:12Z</time>
      </trkpt>
      <trkpt lat="44.75972" lon="5.06171">
        <ele>466.38</ele>
        <time>2023-05-19T08:21:29Z</time>
      </trkpt>
      <trkpt lat="44.75955" lon="5.06182">
        <ele>465.42</ele>
        <time>2023-05-19T08:21:44Z</time>
      </trkpt>
      <trkpt lat="44.75953" lon="5.06182">
        <ele>465.42</ele>
        <time>2023-05-19T08:21:46Z</time>
      </trkpt>
      <trkpt lat="44.75929" lon="5.06184">
        <ele>463.97</ele>
        <time>2023-05-19T08:22:04Z</time>
      </trkpt>
      <trkpt lat="44.75909" lon="5.06189">
        <ele>463.97</ele>
        <time>2023-05-19T08:22:20Z</time>
      </trkpt>
      <trkpt lat="44.75892" lon="5.06196">
        <ele>463.49</ele>
        <time>2023-05-19T08:22:34Z</time>
      </trkpt>
      <trkpt lat="44.75879" lon="5.06196">
        <ele>463.01</ele>
        <time>2023-05-19T08:22:44Z</time>
      </trkpt>
      <trkpt lat="44.75864" lon="5.06203">
        <ele>461.09</ele>
        <time>2023-05-19T08:22:55Z</time>
      </trkpt>
      <trkpt lat="44.75858" lon="5.06208">
        <ele>461.09</ele>
        <time>2023-05-19T08:23:00Z</time>
      </trkpt>
      <trkpt lat="44.75838" lon="5.06221">
        <ele>459.65</ele>
        <time>2023-05-19T08:23:17Z</time>
      </trkpt>
      <trkpt lat="44.75829" lon="5.06223">
        <ele>457.72</ele>
        <time>2023-05-19T08:23:25Z</time>
      </trkpt>
      <trkpt lat="44.75813" lon="5.06233">
        <ele>454.84</ele>
        <time>2023-05-19T08:23:41Z</time>
      </trkpt>
      <trkpt lat="44.7581" lon="5.06234">
        <ele>453.88</ele>
        <time>2023-05-19T08:23:44Z</time>
      </trkpt>
      <trkpt lat="44.75786" lon="5.06236">
        <ele>451.96</ele>
        <time>2023-05-19T08:24:02Z</time>
      </trkpt>
      <trkpt lat="44.75763" lon="5.06234">
        <ele>450.52</ele>
        <time>2023-05-19T08:24:19Z</time>
      </trkpt>
      <trkpt lat="44.75743" lon="5.06233">
        <ele>448.11</ele>
        <time>2023-05-19T08:24:34Z</time>
      </trkpt>
      <trkpt lat="44.75723" lon="5.06233">
        <ele>447.15</ele>
        <time>2023-05-19T08:24:51Z</time>
      </trkpt>
      <trkpt lat="44.75711" lon="5.06234">
        <ele>446.19</ele>
        <time>2023-05-19T08:25:16Z</time>
      </trkpt>
      <trkpt lat="44.75696" lon="5.06233">
        <ele>443.31</ele>
        <time>2023-05-19T08:25:30Z</time>
      </trkpt>
      <trkpt lat="44.75676" lon="5.06238">
        <ele>442.34</ele>
        <time>2023-05-19T08:25:45Z</time>
      </trkpt>
      <trkpt lat="44.75662" lon="5.0624">
        <ele>442.34</ele>
        <time>2023-05-19T08:25:57Z</time>
      </trkpt>
      <trkpt lat="44.75641" lon="5.06239">
        <ele>439.94</ele>
        <time>2023-05-19T08:26:13Z</time>
      </trkpt>
      <trkpt lat="44.75626" lon="5.06245">
        <ele>437.06</ele>
        <time>2023-05-19T08:26:27Z</time>
      </trkpt>
      <trkpt lat="44.75625" lon="5.06246">
        <ele>436.58</ele>
        <time>2023-05-19T08:26:28Z</time>
      </trkpt>
      <trkpt lat="44.75608" lon="5.06254">
        <ele>434.17</ele>
        <time>2023-05-19T08:26:43Z</time>
      </trkpt>
      <trkpt lat="44.75594" lon="5.06253">
        <ele>431.29</ele>
        <time>2023-05-19T08:26:57Z</time>
      </trkpt>
      <trkpt lat="44.75589" lon="5.06263">
        <ele>428.4</ele>
        <time>2023-05-19T08:27:10Z</time>
      </trkpt>
      <trkpt lat="44.7558" lon="5.06268">
        <ele>425.52</ele>
        <time>2023-05-19T08:27:22Z</time>
      </trkpt>
      <trkpt lat="44.75579" lon="5.0627">
        <ele>425.52</ele>
        <time>2023-05-19T08:27:24Z</time>
      </trkpt>
      <trkpt lat="44.75573" lon="5.06278">
        <ele>423.12</ele>
        <time>2023-05-19T08:27:38Z</time>
      </trkpt>
      <trkpt lat="44.75569" lon="5.06274">
        <ele>422.64</ele>
        <time>2023-05-19T08:27:49Z</time>
      </trkpt>
      <trkpt lat="44.75564" lon="5.06268">
        <ele>421.68</ele>
        <time>2023-05-19T08:27:56Z</time>
      </trkpt>
      <trkpt lat="44.75561" lon="5.0627">
        <ele>420.71</ele>
        <time>2023-05-19T08:28:00Z</time>
      </trkpt>
      <trkpt lat="44.75559" lon="5.06279">
        <ele>418.79</ele>
        <time>2023-05-19T08:28:08Z</time>
      </trkpt>
      <trkpt lat="44.75559" lon="5.06282">
        <ele>418.79</ele>
        <time>2023-05-19T08:28:10Z</time>
      </trkpt>
      <trkpt lat="44.75555" lon="5.06297">
        <ele>415.91</ele>
        <time>2023-05-19T08:28:24Z</time>
      </trkpt>
      <trkpt lat="44.75548" lon="5.06303">
        <ele>413.02</ele>
        <time>2023-05-19T08:28:35Z</time>
      </trkpt>
      <trkpt lat="44.75538" lon="5.06312">
        <ele>409.66</ele>
        <time>2023-05-19T08:28:48Z</time>
      </trkpt>
      <trkpt lat="44.75537" lon="5.06312">
        <ele>409.66</ele>
        <time>2023-05-19T08:28:50Z</time>
      </trkpt>
      <trkpt lat="44.75522" lon="5.06316">
        <ele>406.29</ele>
        <time>2023-05-19T08:29:04Z</time>
      </trkpt>
      <trkpt lat="44.75516" lon="5.06319">
        <ele>404.85</ele>
        <time>2023-05-19T08:29:11Z</time>
      </trkpt>
      <trkpt lat="44.75508" lon="5.06327">
        <ele>401.01</ele>
        <time>2023-05-19T08:29:24Z</time>
      </trkpt>
      <trkpt lat="44.75486" lon="5.06322">
        <ele>398.6</ele>
        <time>2023-05-19T08:29:42Z</time>
      </trkpt>
      <trkpt lat="44.75482" lon="5.06323">
        <ele>397.64</ele>
        <time>2023-05-19T08:29:48Z</time>
      </trkpt>
      <trkpt lat="44.75479" lon="5.06326">
        <ele>396.68</ele>
        <time>2023-05-19T08:29:52Z</time>
      </trkpt>
      <trkpt lat="44.75467" lon="5.06323">
        <ele>395.72</ele>
        <time>2023-05-19T08:30:03Z</time>
      </trkpt>
      <trkpt lat="44.75458" lon="5.06323">
        <ele>393.32</ele>
        <time>2023-05-19T08:30:15Z</time>
      </trkpt>
      <trkpt lat="44.75447" lon="5.06325">
        <ele>389.47</ele>
        <time>2023-05-19T08:30:28Z</time>
      </trkpt>
      <trkpt lat="44.7544" lon="5.0633">
        <ele>388.03</ele>
        <time>2023-05-19T08:30:40Z</time>
      </trkpt>
      <trkpt lat="44.75431" lon="5.06333">
        <ele>385.63</ele>
        <time>2023-05-19T08:30:51Z</time>
      </trkpt>
      <trkpt lat="44.75428" lon="5.06343">
        <ele>384.18</ele>
        <time>2023-05-19T08:31:01Z</time>
      </trkpt>
      <trkpt lat="44.75419" lon="5.06343">
        <ele>381.3</ele>
        <time>2023-05-19T08:31:14Z</time>
      </trkpt>
      <trkpt lat="44.75412" lon="5.06354">
        <ele>381.3</ele>
        <time>2023-05-19T08:31:32Z</time>
      </trkpt>
      <trkpt lat="44.75408" lon="5.06359">
        <ele>380.34</ele>
        <time>2023-05-19T08:31:47Z</time>
      </trkpt>
      <trkpt lat="44.75399" lon="5.06374">
        <ele>379.38</ele>
        <time>2023-05-19T08:32:03Z</time>
      </trkpt>
      <trkpt lat="44.75394" lon="5.06377">
        <ele>378.9</ele>
        <time>2023-05-19T08:32:08Z</time>
      </trkpt>
      <trkpt lat="44.75379" lon="5.06396">
        <ele>376.49</ele>
        <time>2023-05-19T08:32:25Z</time>
      </trkpt>
      <trkpt lat="44.7537" lon="5.06411">
        <ele>375.05</ele>
        <time>2023-05-19T08:32:36Z</time>
      </trkpt>
      <trkpt lat="44.75355" lon="5.0642">
        <ele>374.57</ele>
        <time>2023-05-19T08:32:50Z</time>
      </trkpt>
      <trkpt lat="44.7535" lon="5.06422">
        <ele>374.09</ele>
        <time>2023-05-19T08:32:55Z</time>
      </trkpt>
      <trkpt lat="44.75342" lon="5.06433">
        <ele>373.61</ele>
        <time>2023-05-19T08:33:08Z</time>
      </trkpt>
      <trkpt lat="44.75332" lon="5.06442">
        <ele>373.61</ele>
        <time>2023-05-19T08:33:17Z</time>
      </trkpt>
      <trkpt lat="44.75313" lon="5.06449">
        <ele>373.61</ele>
        <time>2023-05-19T08:33:34Z</time>
      </trkpt>
      <trkpt lat="44.75307" lon="5.06455">
        <ele>373.61</ele>
        <time>2023-05-19T08:33:41Z</time>
      </trkpt>
      <trkpt lat="44.75306" lon="5.06458">
        <ele>375.05</ele>
        <time>2023-05-19T08:33:43Z</time>
      </trkpt>
      <trkpt lat="44.75301" lon="5.06476">
        <ele>376.01</ele>
        <time>2023-05-19T08:37:12Z</time>
      </trkpt>
      <trkpt lat="44.75288" lon="5.06475">
        <ele>376.01</ele>
        <time>2023-05-19T08:37:29Z</time>
      </trkpt>
      <trkpt lat="44.75287" lon="5.06475">
        <ele>376.01</ele>
        <time>2023-05-19T08:37:30Z</time>
      </trkpt>
      <trkpt lat="44.75267" lon="5.06477">
        <ele>376.01</ele>
        <time>2023-05-19T08:37:49Z</time>
      </trkpt>
      <trkpt lat="44.75265" lon="5.06478">
        <ele>376.01</ele>
        <time>2023-05-19T08:37:51Z</time>
      </trkpt>
      <trkpt lat="44.75263" lon="5.0648">
        <ele>375.53</ele>
        <time>2023-05-19T08:37:54Z</time>
      </trkpt>
      <trkpt lat="44.75249" lon="5.06498">
        <ele>373.61</ele>
        <time>2023-05-19T08:38:11Z</time>
      </trkpt>
      <trkpt lat="44.75239" lon="5.06504">
        <ele>371.69</ele>
        <time>2023-05-19T08:38:22Z</time>
      </trkpt>
      <trkpt lat="44.75236" lon="5.06502">
        <ele>371.21</ele>
        <time>2023-05-19T08:38:25Z</time>
      </trkpt>
      <trkpt lat="44.75228" lon="5.06502">
        <ele>370.73</ele>
        <time>2023-05-19T08:38:31Z</time>
      </trkpt>
      <trkpt lat="44.75205" lon="5.06494">
        <ele>367.84</ele>
        <time>2023-05-19T08:38:49Z</time>
      </trkpt>
      <trkpt lat="44.75184" lon="5.06479">
        <ele>364.96</ele>
        <time>2023-05-19T08:39:08Z</time>
      </trkpt>
      <trkpt lat="44.75164" lon="5.06474">
        <ele>362.55</ele>
        <time>2023-05-19T08:39:25Z</time>
      </trkpt>
      <trkpt lat="44.7515" lon="5.06468">
        <ele>360.63</ele>
        <time>2023-05-19T08:39:41Z</time>
      </trkpt>
      <trkpt lat="44.75144" lon="5.06463">
        <ele>362.07</ele>
        <time>2023-05-19T08:44:55Z</time>
      </trkpt>
      <trkpt lat="44.75126" lon="5.06462">
        <ele>360.63</ele>
        <time>2023-05-19T08:45:11Z</time>
      </trkpt>
      <trkpt lat="44.75124" lon="5.06458">
        <ele>360.63</ele>
        <time>2023-05-19T08:45:43Z</time>
      </trkpt>
      <trkpt lat="44.75121" lon="5.06458">
        <ele>360.63</ele>
        <time>2023-05-19T08:46:12Z</time>
      </trkpt>
      <trkpt lat="44.75112" lon="5.06456">
        <ele>360.15</ele>
        <time>2023-05-19T08:46:29Z</time>
      </trkpt>
      <trkpt lat="44.75096" lon="5.06452">
        <ele>359.19</ele>
        <time>2023-05-19T08:46:44Z</time>
      </trkpt>
      <trkpt lat="44.75075" lon="5.06448">
        <ele>358.71</ele>
        <time>2023-05-19T08:47:01Z</time>
      </trkpt>
      <trkpt lat="44.7507" lon="5.06445">
        <ele>358.71</ele>
        <time>2023-05-19T08:47:13Z</time>
      </trkpt>
      <trkpt lat="44.75069" lon="5.06444">
        <ele>357.75</ele>
        <time>2023-05-19T08:48:23Z</time>
      </trkpt>
      <trkpt lat="44.75064" lon="5.06443">
        <ele>357.75</ele>
        <time>2023-05-19T08:48:29Z</time>
      </trkpt>
      <trkpt lat="44.75043" lon="5.06439">
        <ele>357.27</ele>
        <time>2023-05-19T08:48:48Z</time>
      </trkpt>
      <trkpt lat="44.75015" lon="5.06435">
        <ele>355.83</ele>
        <time>2023-05-19T08:49:09Z</time>
      </trkpt>
      <trkpt lat="44.74987" lon="5.06431">
        <ele>353.42</ele>
        <time>2023-05-19T08:49:30Z</time>
      </trkpt>
      <trkpt lat="44.74959" lon="5.06429">
        <ele>351.98</ele>
        <time>2023-05-19T08:49:50Z</time>
      </trkpt>
      <trkpt lat="44.74932" lon="5.06427">
        <ele>350.54</ele>
        <time>2023-05-19T08:50:09Z</time>
      </trkpt>
      <trkpt lat="44.74905" lon="5.06433">
        <ele>347.65</ele>
        <time>2023-05-19T08:50:27Z</time>
      </trkpt>
      <trkpt lat="44.74877" lon="5.06445">
        <ele>344.29</ele>
        <time>2023-05-19T08:50:47Z</time>
      </trkpt>
      <trkpt lat="44.74845" lon="5.06444">
        <ele>341.41</ele>
        <time>2023-05-19T08:51:09Z</time>
      </trkpt>
      <trkpt lat="44.74819" lon="5.06442">
        <ele>339.96</ele>
        <time>2023-05-19T08:51:27Z</time>
      </trkpt>
      <trkpt lat="44.74799" lon="5.06435">
        <ele>339.96</ele>
        <time>2023-05-19T08:51:45Z</time>
      </trkpt>
      <trkpt lat="44.74779" lon="5.06423">
        <ele>339.96</ele>
        <time>2023-05-19T08:52:02Z</time>
      </trkpt>
      <trkpt lat="44.7476" lon="5.06408">
        <ele>339.96</ele>
        <time>2023-05-19T08:52:20Z</time>
      </trkpt>
      <trkpt lat="44.74756" lon="5.06404">
        <ele>339.96</ele>
        <time>2023-05-19T08:52:24Z</time>
      </trkpt>
      <trkpt lat="44.74752" lon="5.06401">
        <ele>339.96</ele>
        <time>2023-05-19T08:52:28Z</time>
      </trkpt>
      <trkpt lat="44.74733" lon="5.06396">
        <ele>339.48</ele>
        <time>2023-05-19T08:52:46Z</time>
      </trkpt>
      <trkpt lat="44.7473" lon="5.06393">
        <ele>339.48</ele>
        <time>2023-05-19T08:53:03Z</time>
      </trkpt>
      <trkpt lat="44.74714" lon="5.06392">
        <ele>339</ele>
        <time>2023-05-19T08:53:19Z</time>
      </trkpt>
      <trkpt lat="44.74705" lon="5.06392">
        <ele>340.44</ele>
        <time>2023-05-19T08:53:26Z</time>
      </trkpt>
      <trkpt lat="44.74686" lon="5.06388">
        <ele>340.44</ele>
        <time>2023-05-19T08:53:42Z</time>
      </trkpt>
      <trkpt lat="44.74669" lon="5.06385">
        <ele>340.92</ele>
        <time>2023-05-19T08:53:58Z</time>
      </trkpt>
      <trkpt lat="44.74655" lon="5.06381">
        <ele>342.37</ele>
        <time>2023-05-19T08:54:12Z</time>
      </trkpt>
      <trkpt lat="44.74636" lon="5.06378">
        <ele>343.33</ele>
        <time>2023-05-19T08:54:28Z</time>
      </trkpt>
      <trkpt lat="44.74622" lon="5.06373">
        <ele>343.81</ele>
        <time>2023-05-19T08:54:41Z</time>
      </trkpt>
      <trkpt lat="44.74603" lon="5.06368">
        <ele>344.29</ele>
        <time>2023-05-19T08:54:57Z</time>
      </trkpt>
      <trkpt lat="44.74589" lon="5.06363">
        <ele>345.73</ele>
        <time>2023-05-19T08:55:10Z</time>
      </trkpt>
      <trkpt lat="44.74576" lon="5.0636">
        <ele>346.21</ele>
        <time>2023-05-19T08:55:21Z</time>
      </trkpt>
      <trkpt lat="44.74557" lon="5.06356">
        <ele>346.69</ele>
        <time>2023-05-19T08:55:37Z</time>
      </trkpt>
      <trkpt lat="44.74538" lon="5.06351">
        <ele>347.17</ele>
        <time>2023-05-19T08:55:53Z</time>
      </trkpt>
      <trkpt lat="44.7452" lon="5.06345">
        <ele>347.65</ele>
        <time>2023-05-19T08:56:08Z</time>
      </trkpt>
      <trkpt lat="44.74505" lon="5.06341">
        <ele>348.62</ele>
        <time>2023-05-19T08:56:21Z</time>
      </trkpt>
      <trkpt lat="44.74494" lon="5.06337">
        <ele>349.58</ele>
        <time>2023-05-19T08:56:31Z</time>
      </trkpt>
      <trkpt lat="44.74474" lon="5.06334">
        <ele>350.54</ele>
        <time>2023-05-19T08:56:48Z</time>
      </trkpt>
      <trkpt lat="44.74456" lon="5.0633">
        <ele>350.54</ele>
        <time>2023-05-19T08:57:02Z</time>
      </trkpt>
      <trkpt lat="44.74438" lon="5.06325">
        <ele>350.54</ele>
        <time>2023-05-19T08:57:17Z</time>
      </trkpt>
      <trkpt lat="44.7442" lon="5.06322">
        <ele>350.54</ele>
        <time>2023-05-19T08:57:31Z</time>
      </trkpt>
      <trkpt lat="44.74404" lon="5.0632">
        <ele>350.54</ele>
        <time>2023-05-19T08:57:45Z</time>
      </trkpt>
      <trkpt lat="44.74385" lon="5.0632">
        <ele>348.13</ele>
        <time>2023-05-19T08:58:00Z</time>
      </trkpt>
      <trkpt lat="44.74364" lon="5.06321">
        <ele>346.21</ele>
        <time>2023-05-19T08:58:16Z</time>
      </trkpt>
      <trkpt lat="44.74343" lon="5.06324">
        <ele>344.77</ele>
        <time>2023-05-19T08:58:32Z</time>
      </trkpt>
      <trkpt lat="44.74325" lon="5.06328">
        <ele>343.33</ele>
        <time>2023-05-19T08:58:44Z</time>
      </trkpt>
      <trkpt lat="44.74299" lon="5.06332">
        <ele>342.37</ele>
        <time>2023-05-19T08:59:03Z</time>
      </trkpt>
      <trkpt lat="44.74283" lon="5.06332">
        <ele>342.37</ele>
        <time>2023-05-19T08:59:17Z</time>
      </trkpt>
      <trkpt lat="44.74262" lon="5.06333">
        <ele>343.81</ele>
        <time>2023-05-19T08:59:33Z</time>
      </trkpt>
      <trkpt lat="44.74243" lon="5.06337">
        <ele>344.77</ele>
        <time>2023-05-19T08:59:49Z</time>
      </trkpt>
      <trkpt lat="44.74227" lon="5.06338">
        <ele>346.21</ele>
        <time>2023-05-19T09:00:03Z</time>
      </trkpt>
      <trkpt lat="44.74226" lon="5.06337">
        <ele>346.21</ele>
        <time>2023-05-19T09:00:04Z</time>
      </trkpt>
      <trkpt lat="44.74213" lon="5.06335">
        <ele>347.17</ele>
        <time>2023-05-19T09:00:17Z</time>
      </trkpt>
      <trkpt lat="44.74198" lon="5.06332">
        <ele>348.62</ele>
        <time>2023-05-19T09:00:30Z</time>
      </trkpt>
      <trkpt lat="44.74181" lon="5.06329">
        <ele>350.54</ele>
        <time>2023-05-19T09:00:46Z</time>
      </trkpt>
      <trkpt lat="44.74172" lon="5.06328">
        <ele>351.5</ele>
        <time>2023-05-19T09:00:55Z</time>
      </trkpt>
      <trkpt lat="44.74157" lon="5.06325">
        <ele>353.42</ele>
        <time>2023-05-19T09:01:09Z</time>
      </trkpt>
      <trkpt lat="44.74146" lon="5.06323">
        <ele>355.34</ele>
        <time>2023-05-19T09:01:21Z</time>
      </trkpt>
      <trkpt lat="44.74132" lon="5.0632">
        <ele>357.27</ele>
        <time>2023-05-19T09:01:37Z</time>
      </trkpt>
      <trkpt lat="44.74121" lon="5.06317">
        <ele>358.71</ele>
        <time>2023-05-19T09:01:47Z</time>
      </trkpt>
      <trkpt lat="44.74105" lon="5.06314">
        <ele>359.67</ele>
        <time>2023-05-19T09:02:02Z</time>
      </trkpt>
      <trkpt lat="44.74087" lon="5.06313">
        <ele>361.11</ele>
        <time>2023-05-19T09:02:18Z</time>
      </trkpt>
      <trkpt lat="44.7407" lon="5.06315">
        <ele>362.07</ele>
        <time>2023-05-19T09:02:32Z</time>
      </trkpt>
      <trkpt lat="44.74062" lon="5.06314">
        <ele>362.07</ele>
        <time>2023-05-19T09:02:38Z</time>
      </trkpt>
      <trkpt lat="44.74044" lon="5.06307">
        <ele>363.04</ele>
        <time>2023-05-19T09:02:53Z</time>
      </trkpt>
      <trkpt lat="44.74022" lon="5.06295">
        <ele>363.52</ele>
        <time>2023-05-19T09:03:12Z</time>
      </trkpt>
      <trkpt lat="44.73999" lon="5.06286">
        <ele>362.07</ele>
        <time>2023-05-19T09:03:31Z</time>
      </trkpt>
      <trkpt lat="44.73974" lon="5.06279">
        <ele>362.07</ele>
        <time>2023-05-19T09:03:50Z</time>
      </trkpt>
      <trkpt lat="44.73956" lon="5.06276">
        <ele>361.59</ele>
        <time>2023-05-19T09:04:05Z</time>
      </trkpt>
      <trkpt lat="44.73947" lon="5.06273">
        <ele>361.59</ele>
        <time>2023-05-19T09:04:12Z</time>
      </trkpt>
      <trkpt lat="44.73925" lon="5.06269">
        <ele>363.04</ele>
        <time>2023-05-19T09:04:28Z</time>
      </trkpt>
      <trkpt lat="44.7391" lon="5.06266">
        <ele>363.04</ele>
        <time>2023-05-19T09:04:42Z</time>
      </trkpt>
      <trkpt lat="44.73907" lon="5.06265">
        <ele>363.04</ele>
        <time>2023-05-19T09:04:45Z</time>
      </trkpt>
      <trkpt lat="44.73881" lon="5.06266">
        <ele>363.52</ele>
        <time>2023-05-19T09:05:03Z</time>
      </trkpt>
      <trkpt lat="44.73874" lon="5.06266">
        <ele>363.52</ele>
        <time>2023-05-19T09:05:08Z</time>
      </trkpt>
      <trkpt lat="44.73852" lon="5.06261">
        <ele>364</ele>
        <time>2023-05-19T09:05:25Z</time>
      </trkpt>
      <trkpt lat="44.73832" lon="5.06257">
        <ele>364.96</ele>
        <time>2023-05-19T09:05:42Z</time>
      </trkpt>
      <trkpt lat="44.73826" lon="5.06255">
        <ele>364.48</ele>
        <time>2023-05-19T09:05:47Z</time>
      </trkpt>
      <trkpt lat="44.73803" lon="5.06249">
        <ele>364.96</ele>
        <time>2023-05-19T09:06:05Z</time>
      </trkpt>
      <trkpt lat="44.73779" lon="5.06241">
        <ele>365.44</ele>
        <time>2023-05-19T09:06:23Z</time>
      </trkpt>
      <trkpt lat="44.73758" lon="5.06241">
        <ele>365.44</ele>
        <time>2023-05-19T09:06:39Z</time>
      </trkpt>
      <trkpt lat="44.73749" lon="5.06239">
        <ele>365.44</ele>
        <time>2023-05-19T09:06:47Z</time>
      </trkpt>
      <trkpt lat="44.7374" lon="5.06238">
        <ele>364</ele>
        <time>2023-05-19T09:06:53Z</time>
      </trkpt>
      <trkpt lat="44.73714" lon="5.06237">
        <ele>363.04</ele>
        <time>2023-05-19T09:07:12Z</time>
      </trkpt>
      <trkpt lat="44.7369" lon="5.06238">
        <ele>362.55</ele>
        <time>2023-05-19T09:07:30Z</time>
      </trkpt>
      <trkpt lat="44.73669" lon="5.06235">
        <ele>361.11</ele>
        <time>2023-05-19T09:07:47Z</time>
      </trkpt>
      <trkpt lat="44.73647" lon="5.0623">
        <ele>360.63</ele>
        <time>2023-05-19T09:08:04Z</time>
      </trkpt>
      <trkpt lat="44.7363" lon="5.06218">
        <ele>359.67</ele>
        <time>2023-05-19T09:08:19Z</time>
      </trkpt>
      <trkpt lat="44.73614" lon="5.06205">
        <ele>359.19</ele>
        <time>2023-05-19T09:08:34Z</time>
      </trkpt>
      <trkpt lat="44.73593" lon="5.06194">
        <ele>358.23</ele>
        <time>2023-05-19T09:08:52Z</time>
      </trkpt>
      <trkpt lat="44.73575" lon="5.06185">
        <ele>357.75</ele>
        <time>2023-05-19T09:09:08Z</time>
      </trkpt>
      <trkpt lat="44.73556" lon="5.0618">
        <ele>357.27</ele>
        <time>2023-05-19T09:09:24Z</time>
      </trkpt>
      <trkpt lat="44.73537" lon="5.06172">
        <ele>356.79</ele>
        <time>2023-05-19T09:09:38Z</time>
      </trkpt>
      <trkpt lat="44.73531" lon="5.06169">
        <ele>356.31</ele>
        <time>2023-05-19T09:09:43Z</time>
      </trkpt>
      <trkpt lat="44.73522" lon="5.06167">
        <ele>355.83</ele>
        <time>2023-05-19T09:09:50Z</time>
      </trkpt>
      <trkpt lat="44.73504" lon="5.06156">
        <ele>355.83</ele>
        <time>2023-05-19T09:10:06Z</time>
      </trkpt>
      <trkpt lat="44.73488" lon="5.06143">
        <ele>355.83</ele>
        <time>2023-05-19T09:10:21Z</time>
      </trkpt>
      <trkpt lat="44.73469" lon="5.06129">
        <ele>355.83</ele>
        <time>2023-05-19T09:10:36Z</time>
      </trkpt>
      <trkpt lat="44.73458" lon="5.06121">
        <ele>355.34</ele>
        <time>2023-05-19T09:10:45Z</time>
      </trkpt>
      <trkpt lat="44.73444" lon="5.06108">
        <ele>355.34</ele>
        <time>2023-05-19T09:10:59Z</time>
      </trkpt>
      <trkpt lat="44.73432" lon="5.06095">
        <ele>355.34</ele>
        <time>2023-05-19T09:11:15Z</time>
      </trkpt>
      <trkpt lat="44.73427" lon="5.06089">
        <ele>354.86</ele>
        <time>2023-05-19T09:11:21Z</time>
      </trkpt>
      <trkpt lat="44.73412" lon="5.0607">
        <ele>354.38</ele>
        <time>2023-05-19T09:11:39Z</time>
      </trkpt>
      <trkpt lat="44.73407" lon="5.06064">
        <ele>352.94</ele>
        <time>2023-05-19T09:11:44Z</time>
      </trkpt>
      <trkpt lat="44.73393" lon="5.06053">
        <ele>351.98</ele>
        <time>2023-05-19T09:11:58Z</time>
      </trkpt>
      <trkpt lat="44.73392" lon="5.06052">
        <ele>351.98</ele>
        <time>2023-05-19T09:11:59Z</time>
      </trkpt>
      <trkpt lat="44.73375" lon="5.06042">
        <ele>351.02</ele>
        <time>2023-05-19T09:12:15Z</time>
      </trkpt>
      <trkpt lat="44.73353" lon="5.0603">
        <ele>349.1</ele>
        <time>2023-05-19T09:12:33Z</time>
      </trkpt>
      <trkpt lat="44.73339" lon="5.06021">
        <ele>349.1</ele>
        <time>2023-05-19T09:12:47Z</time>
      </trkpt>
      <trkpt lat="44.73323" lon="5.06012">
        <ele>348.62</ele>
        <time>2023-05-19T09:13:02Z</time>
      </trkpt>
      <trkpt lat="44.73306" lon="5.05999">
        <ele>348.13</ele>
        <time>2023-05-19T09:13:18Z</time>
      </trkpt>
      <trkpt lat="44.7329" lon="5.05985">
        <ele>349.58</ele>
        <time>2023-05-19T09:13:34Z</time>
      </trkpt>
      <trkpt lat="44.73275" lon="5.05966">
        <ele>349.58</ele>
        <time>2023-05-19T09:13:52Z</time>
      </trkpt>
      <trkpt lat="44.73263" lon="5.05945">
        <ele>350.06</ele>
        <time>2023-05-19T09:14:10Z</time>
      </trkpt>
      <trkpt lat="44.73246" lon="5.0593">
        <ele>348.13</ele>
        <time>2023-05-19T09:14:30Z</time>
      </trkpt>
      <trkpt lat="44.73239" lon="5.05919">
        <ele>346.69</ele>
        <time>2023-05-19T09:14:44Z</time>
      </trkpt>
      <trkpt lat="44.73237" lon="5.05908">
        <ele>346.21</ele>
        <time>2023-05-19T09:15:00Z</time>
      </trkpt>
      <trkpt lat="44.73234" lon="5.05894">
        <ele>345.25</ele>
        <time>2023-05-19T09:15:16Z</time>
      </trkpt>
      <trkpt lat="44.73234" lon="5.05889">
        <ele>344.77</ele>
        <time>2023-05-19T09:15:31Z</time>
      </trkpt>
      <trkpt lat="44.73231" lon="5.05885">
        <ele>344.29</ele>
        <time>2023-05-19T09:15:49Z</time>
      </trkpt>
      <trkpt lat="44.73226" lon="5.05873">
        <ele>343.81</ele>
        <time>2023-05-19T09:15:59Z</time>
      </trkpt>
      <trkpt lat="44.73223" lon="5.05867">
        <ele>342.85</ele>
        <time>2023-05-19T09:16:03Z</time>
      </trkpt>
      <trkpt lat="44.73214" lon="5.05841">
        <ele>341.41</ele>
        <time>2023-05-19T09:16:18Z</time>
      </trkpt>
      <trkpt lat="44.7321" lon="5.05833">
        <ele>341.41</ele>
        <time>2023-05-19T09:16:23Z</time>
      </trkpt>
      <trkpt lat="44.7321" lon="5.05825">
        <ele>340.44</ele>
        <time>2023-05-19T09:16:28Z</time>
      </trkpt>
      <trkpt lat="44.73207" lon="5.05816">
        <ele>340.44</ele>
        <time>2023-05-19T09:16:34Z</time>
      </trkpt>
      <trkpt lat="44.73204" lon="5.05806">
        <ele>340.44</ele>
        <time>2023-05-19T09:16:40Z</time>
      </trkpt>
      <trkpt lat="44.73201" lon="5.05801">
        <ele>340.44</ele>
        <time>2023-05-19T09:16:43Z</time>
      </trkpt>
      <trkpt lat="44.73199" lon="5.05785">
        <ele>340.44</ele>
        <time>2023-05-19T09:16:54Z</time>
      </trkpt>
      <trkpt lat="44.73199" lon="5.05766">
        <ele>339.48</ele>
        <time>2023-05-19T09:17:06Z</time>
      </trkpt>
      <trkpt lat="44.73196" lon="5.05741">
        <ele>339.96</ele>
        <time>2023-05-19T09:17:20Z</time>
      </trkpt>
      <trkpt lat="44.73195" lon="5.05738">
        <ele>340.92</ele>
        <time>2023-05-19T09:17:22Z</time>
      </trkpt>
      <trkpt lat="44.73194" lon="5.05736">
        <ele>341.41</ele>
        <time>2023-05-19T09:17:23Z</time>
      </trkpt>
      <trkpt lat="44.73193" lon="5.05733">
        <ele>341.41</ele>
        <time>2023-05-19T09:17:25Z</time>
      </trkpt>
      <trkpt lat="44.73184" lon="5.05705">
        <ele>343.33</ele>
        <time>2023-05-19T09:17:43Z</time>
      </trkpt>
      <trkpt lat="44.73178" lon="5.05696">
        <ele>344.77</ele>
        <time>2023-05-19T09:17:51Z</time>
      </trkpt>
      <trkpt lat="44.73168" lon="5.05677">
        <ele>345.73</ele>
        <time>2023-05-19T09:18:06Z</time>
      </trkpt>
      <trkpt lat="44.73166" lon="5.05671">
        <ele>346.21</ele>
        <time>2023-05-19T09:18:10Z</time>
      </trkpt>
      <trkpt lat="44.73161" lon="5.0565">
        <ele>344.77</ele>
        <time>2023-05-19T09:18:24Z</time>
      </trkpt>
      <trkpt lat="44.73159" lon="5.05645">
        <ele>344.29</ele>
        <time>2023-05-19T09:18:27Z</time>
      </trkpt>
      <trkpt lat="44.73158" lon="5.05642">
        <ele>344.29</ele>
        <time>2023-05-19T09:18:29Z</time>
      </trkpt>
      <trkpt lat="44.73154" lon="5.05629">
        <ele>342.85</ele>
        <time>2023-05-19T09:18:38Z</time>
      </trkpt>
      <trkpt lat="44.73152" lon="5.05624">
        <ele>341.89</ele>
        <time>2023-05-19T09:18:42Z</time>
      </trkpt>
      <trkpt lat="44.73143" lon="5.05599">
        <ele>339</ele>
        <time>2023-05-19T09:18:58Z</time>
      </trkpt>
      <trkpt lat="44.73137" lon="5.05582">
        <ele>335.64</ele>
        <time>2023-05-19T09:19:10Z</time>
      </trkpt>
      <trkpt lat="44.73134" lon="5.05574">
        <ele>334.2</ele>
        <time>2023-05-19T09:19:17Z</time>
      </trkpt>
      <trkpt lat="44.73128" lon="5.05562">
        <ele>332.75</ele>
        <time>2023-05-19T09:19:27Z</time>
      </trkpt>
      <trkpt lat="44.73127" lon="5.05559">
        <ele>332.27</ele>
        <time>2023-05-19T09:19:29Z</time>
      </trkpt>
      <trkpt lat="44.73122" lon="5.05542">
        <ele>329.39</ele>
        <time>2023-05-19T09:19:42Z</time>
      </trkpt>
      <trkpt lat="44.7311" lon="5.05513">
        <ele>326.99</ele>
        <time>2023-05-19T09:19:58Z</time>
      </trkpt>
      <trkpt lat="44.73109" lon="5.05512">
        <ele>326.99</ele>
        <time>2023-05-19T09:19:59Z</time>
      </trkpt>
      <trkpt lat="44.731" lon="5.05493">
        <ele>323.14</ele>
        <time>2023-05-19T09:20:13Z</time>
      </trkpt>
      <trkpt lat="44.73094" lon="5.05482">
        <ele>321.22</ele>
        <time>2023-05-19T09:20:25Z</time>
      </trkpt>
      <trkpt lat="44.73093" lon="5.05479">
        <ele>320.26</ele>
        <time>2023-05-19T09:20:28Z</time>
      </trkpt>
      <trkpt lat="44.73088" lon="5.05468">
        <ele>316.89</ele>
        <time>2023-05-19T09:20:37Z</time>
      </trkpt>
      <trkpt lat="44.73081" lon="5.05449">
        <ele>314.01</ele>
        <time>2023-05-19T09:20:51Z</time>
      </trkpt>
      <trkpt lat="44.7308" lon="5.05445">
        <ele>314.01</ele>
        <time>2023-05-19T09:20:54Z</time>
      </trkpt>
      <trkpt lat="44.7308" lon="5.05441">
        <ele>313.05</ele>
        <time>2023-05-19T09:20:56Z</time>
      </trkpt>
      <trkpt lat="44.73075" lon="5.05424">
        <ele>309.68</ele>
        <time>2023-05-19T09:21:08Z</time>
      </trkpt>
      <trkpt lat="44.73072" lon="5.05414">
        <ele>308.24</ele>
        <time>2023-05-19T09:21:15Z</time>
      </trkpt>
      <trkpt lat="44.73066" lon="5.05396">
        <ele>305.84</ele>
        <time>2023-05-19T09:21:30Z</time>
      </trkpt>
      <trkpt lat="44.7306" lon="5.05376">
        <ele>302.47</ele>
        <time>2023-05-19T09:21:46Z</time>
      </trkpt>
      <trkpt lat="44.73054" lon="5.05357">
        <ele>300.07</ele>
        <time>2023-05-19T09:22:01Z</time>
      </trkpt>
      <trkpt lat="44.73049" lon="5.05336">
        <ele>298.15</ele>
        <time>2023-05-19T09:22:18Z</time>
      </trkpt>
      <trkpt lat="44.73051" lon="5.05327">
        <ele>298.15</ele>
        <time>2023-05-19T09:24:55Z</time>
      </trkpt>
      <trkpt lat="44.73053" lon="5.05325">
        <ele>298.63</ele>
        <time>2023-05-19T09:24:57Z</time>
      </trkpt>
      <trkpt lat="44.73057" lon="5.05306">
        <ele>295.74</ele>
        <time>2023-05-19T09:25:08Z</time>
      </trkpt>
      <trkpt lat="44.73059" lon="5.053">
        <ele>295.26</ele>
        <time>2023-05-19T09:25:12Z</time>
      </trkpt>
      <trkpt lat="44.73061" lon="5.05291">
        <ele>295.26</ele>
        <time>2023-05-19T09:25:18Z</time>
      </trkpt>
      <trkpt lat="44.73065" lon="5.05278">
        <ele>294.78</ele>
        <time>2023-05-19T09:25:25Z</time>
      </trkpt>
      <trkpt lat="44.73075" lon="5.05248">
        <ele>293.34</ele>
        <time>2023-05-19T09:25:43Z</time>
      </trkpt>
      <trkpt lat="44.73086" lon="5.05219">
        <ele>294.3</ele>
        <time>2023-05-19T09:26:01Z</time>
      </trkpt>
      <trkpt lat="44.73093" lon="5.05205">
        <ele>294.3</ele>
        <time>2023-05-19T09:26:11Z</time>
      </trkpt>
      <trkpt lat="44.73099" lon="5.05191">
        <ele>296.22</ele>
        <time>2023-05-19T09:26:24Z</time>
      </trkpt>
      <trkpt lat="44.73104" lon="5.05183">
        <ele>296.7</ele>
        <time>2023-05-19T09:26:34Z</time>
      </trkpt>
      <trkpt lat="44.7311" lon="5.05162">
        <ele>297.67</ele>
        <time>2023-05-19T09:26:50Z</time>
      </trkpt>
      <trkpt lat="44.73113" lon="5.05139">
        <ele>297.67</ele>
        <time>2023-05-19T09:27:05Z</time>
      </trkpt>
      <trkpt lat="44.73115" lon="5.05123">
        <ele>297.67</ele>
        <time>2023-05-19T09:27:18Z</time>
      </trkpt>
      <trkpt lat="44.73116" lon="5.05115">
        <ele>298.63</ele>
        <time>2023-05-19T09:27:24Z</time>
      </trkpt>
      <trkpt lat="44.7312" lon="5.05096">
        <ele>299.11</ele>
        <time>2023-05-19T09:27:37Z</time>
      </trkpt>
      <trkpt lat="44.73118" lon="5.05069">
        <ele>299.59</ele>
        <time>2023-05-19T09:27:53Z</time>
      </trkpt>
      <trkpt lat="44.73111" lon="5.05038">
        <ele>300.07</ele>
        <time>2023-05-19T09:28:12Z</time>
      </trkpt>
      <trkpt lat="44.73111" lon="5.05037">
        <ele>300.07</ele>
        <time>2023-05-19T09:28:13Z</time>
      </trkpt>
      <trkpt lat="44.73105" lon="5.05018">
        <ele>298.63</ele>
        <time>2023-05-19T09:28:27Z</time>
      </trkpt>
      <trkpt lat="44.73099" lon="5.04993">
        <ele>296.22</ele>
        <time>2023-05-19T09:28:44Z</time>
      </trkpt>
      <trkpt lat="44.73104" lon="5.04972">
        <ele>293.82</ele>
        <time>2023-05-19T09:29:00Z</time>
      </trkpt>
      <trkpt lat="44.73112" lon="5.04957">
        <ele>290.94</ele>
        <time>2023-05-19T09:29:13Z</time>
      </trkpt>
      <trkpt lat="44.7312" lon="5.04948">
        <ele>287.57</ele>
        <time>2023-05-19T09:29:26Z</time>
      </trkpt>
      <trkpt lat="44.73131" lon="5.04937">
        <ele>285.17</ele>
        <time>2023-05-19T09:29:40Z</time>
      </trkpt>
      <trkpt lat="44.73132" lon="5.04933">
        <ele>285.17</ele>
        <time>2023-05-19T09:29:43Z</time>
      </trkpt>
      <trkpt lat="44.73131" lon="5.04923">
        <ele>283.73</ele>
        <time>2023-05-19T09:29:50Z</time>
      </trkpt>
      <trkpt lat="44.7313" lon="5.04915">
        <ele>283.73</ele>
        <time>2023-05-19T09:29:55Z</time>
      </trkpt>
      <trkpt lat="44.73135" lon="5.0488">
        <ele>282.77</ele>
        <time>2023-05-19T09:30:16Z</time>
      </trkpt>
      <trkpt lat="44.73136" lon="5.04867">
        <ele>281.8</ele>
        <time>2023-05-19T09:30:24Z</time>
      </trkpt>
      <trkpt lat="44.73135" lon="5.04861">
        <ele>280.84</ele>
        <time>2023-05-19T09:30:28Z</time>
      </trkpt>
      <trkpt lat="44.73123" lon="5.04842">
        <ele>283.25</ele>
        <time>2023-05-19T09:30:44Z</time>
      </trkpt>
      <trkpt lat="44.73115" lon="5.0483">
        <ele>284.69</ele>
        <time>2023-05-19T09:30:57Z</time>
      </trkpt>
      <trkpt lat="44.73119" lon="5.0481">
        <ele>286.61</ele>
        <time>2023-05-19T09:31:13Z</time>
      </trkpt>
      <trkpt lat="44.7312" lon="5.04805">
        <ele>286.61</ele>
        <time>2023-05-19T09:31:16Z</time>
      </trkpt>
      <trkpt lat="44.73125" lon="5.04786">
        <ele>286.61</ele>
        <time>2023-05-19T09:31:28Z</time>
      </trkpt>
      <trkpt lat="44.73133" lon="5.04778">
        <ele>285.17</ele>
        <time>2023-05-19T09:31:40Z</time>
      </trkpt>
      <trkpt lat="44.73138" lon="5.04776">
        <ele>282.28</ele>
        <time>2023-05-19T09:31:48Z</time>
      </trkpt>
      <trkpt lat="44.7314" lon="5.04759">
        <ele>282.28</ele>
        <time>2023-05-19T09:32:01Z</time>
      </trkpt>
      <trkpt lat="44.73138" lon="5.04738">
        <ele>280.84</ele>
        <time>2023-05-19T09:32:15Z</time>
      </trkpt>
      <trkpt lat="44.73139" lon="5.04718">
        <ele>277.96</ele>
        <time>2023-05-19T09:32:31Z</time>
      </trkpt>
      <trkpt lat="44.73139" lon="5.04714">
        <ele>277</ele>
        <time>2023-05-19T09:32:34Z</time>
      </trkpt>
      <trkpt lat="44.73139" lon="5.04688">
        <ele>274.59</ele>
        <time>2023-05-19T09:32:51Z</time>
      </trkpt>
      <trkpt lat="44.73135" lon="5.04667">
        <ele>272.19</ele>
        <time>2023-05-19T09:33:07Z</time>
      </trkpt>
      <trkpt lat="44.73134" lon="5.04664">
        <ele>272.19</ele>
        <time>2023-05-19T09:33:09Z</time>
      </trkpt>
      <trkpt lat="44.73123" lon="5.04643">
        <ele>270.27</ele>
        <time>2023-05-19T09:33:25Z</time>
      </trkpt>
      <trkpt lat="44.73109" lon="5.04622">
        <ele>270.27</ele>
        <time>2023-05-19T09:33:42Z</time>
      </trkpt>
      <trkpt lat="44.73101" lon="5.04606">
        <ele>269.79</ele>
        <time>2023-05-19T09:33:54Z</time>
      </trkpt>
      <trkpt lat="44.73099" lon="5.04605">
        <ele>269.79</ele>
        <time>2023-05-19T09:33:56Z</time>
      </trkpt>
      <trkpt lat="44.7309" lon="5.0459">
        <ele>269.79</ele>
        <time>2023-05-19T09:34:09Z</time>
      </trkpt>
      <trkpt lat="44.73085" lon="5.04582">
        <ele>267.38</ele>
        <time>2023-05-19T09:34:16Z</time>
      </trkpt>
      <trkpt lat="44.73077" lon="5.04568">
        <ele>264.5</ele>
        <time>2023-05-19T09:34:30Z</time>
      </trkpt>
      <trkpt lat="44.7307" lon="5.04548">
        <ele>261.62</ele>
        <time>2023-05-19T09:34:49Z</time>
      </trkpt>
      <trkpt lat="44.73061" lon="5.04528">
        <ele>258.73</ele>
        <time>2023-05-19T09:35:07Z</time>
      </trkpt>
      <trkpt lat="44.73053" lon="5.04517">
        <ele>255.85</ele>
        <time>2023-05-19T09:35:20Z</time>
      </trkpt>
      <trkpt lat="44.73043" lon="5.04501">
        <ele>252</ele>
        <time>2023-05-19T09:35:35Z</time>
      </trkpt>
      <trkpt lat="44.7303" lon="5.04484">
        <ele>248.64</ele>
        <time>2023-05-19T09:35:51Z</time>
      </trkpt>
      <trkpt lat="44.73015" lon="5.04464">
        <ele>246.23</ele>
        <time>2023-05-19T09:36:09Z</time>
      </trkpt>
      <trkpt lat="44.73001" lon="5.04445">
        <ele>244.31</ele>
        <time>2023-05-19T09:36:24Z</time>
      </trkpt>
      <trkpt lat="44.72985" lon="5.04425">
        <ele>242.87</ele>
        <time>2023-05-19T09:36:42Z</time>
      </trkpt>
      <trkpt lat="44.72972" lon="5.04409">
        <ele>241.43</ele>
        <time>2023-05-19T09:37:01Z</time>
      </trkpt>
      <trkpt lat="44.72972" lon="5.04409">
        <ele>242.87</ele>
        <time>2023-05-19T09:37:04Z</time>
      </trkpt>
      <trkpt lat="44.7296" lon="5.0439">
        <ele>243.35</ele>
        <time>2023-05-19T09:37:18Z</time>
      </trkpt>
      <trkpt lat="44.72952" lon="5.04364">
        <ele>242.39</ele>
        <time>2023-05-19T09:37:34Z</time>
      </trkpt>
      <trkpt lat="44.72951" lon="5.04352">
        <ele>242.39</ele>
        <time>2023-05-19T09:37:41Z</time>
      </trkpt>
      <trkpt lat="44.72949" lon="5.04347">
        <ele>242.39</ele>
        <time>2023-05-19T09:37:45Z</time>
      </trkpt>
      <trkpt lat="44.7293" lon="5.04333">
        <ele>240.95</ele>
        <time>2023-05-19T09:38:04Z</time>
      </trkpt>
      <trkpt lat="44.7291" lon="5.04321">
        <ele>238.54</ele>
        <time>2023-05-19T09:38:22Z</time>
      </trkpt>
      <trkpt lat="44.7289" lon="5.0431">
        <ele>239.99</ele>
        <time>2023-05-19T09:38:40Z</time>
      </trkpt>
      <trkpt lat="44.72884" lon="5.04307">
        <ele>237.58</ele>
        <time>2023-05-19T09:38:45Z</time>
      </trkpt>
      <trkpt lat="44.72864" lon="5.04297">
        <ele>236.62</ele>
        <time>2023-05-19T09:39:02Z</time>
      </trkpt>
      <trkpt lat="44.72843" lon="5.04287">
        <ele>236.62</ele>
        <time>2023-05-19T09:39:21Z</time>
      </trkpt>
      <trkpt lat="44.72834" lon="5.04283">
        <ele>236.62</ele>
        <time>2023-05-19T09:39:29Z</time>
      </trkpt>
      <trkpt lat="44.72828" lon="5.0428">
        <ele>236.14</ele>
        <time>2023-05-19T09:39:34Z</time>
      </trkpt>
      <trkpt lat="44.72807" lon="5.0427">
        <ele>236.14</ele>
        <time>2023-05-19T09:39:52Z</time>
      </trkpt>
      <trkpt lat="44.72805" lon="5.0427">
        <ele>236.14</ele>
        <time>2023-05-19T09:39:53Z</time>
      </trkpt>
      <trkpt lat="44.72783" lon="5.04257">
        <ele>235.18</ele>
        <time>2023-05-19T09:40:12Z</time>
      </trkpt>
      <trkpt lat="44.7276" lon="5.0424">
        <ele>235.18</ele>
        <time>2023-05-19T09:40:32Z</time>
      </trkpt>
      <trkpt lat="44.7274" lon="5.0422">
        <ele>234.7</ele>
        <time>2023-05-19T09:40:50Z</time>
      </trkpt>
      <trkpt lat="44.72733" lon="5.0421">
        <ele>234.22</ele>
        <time>2023-05-19T09:40:58Z</time>
      </trkpt>
      <trkpt lat="44.72719" lon="5.04187">
        <ele>232.3</ele>
        <time>2023-05-19T09:41:14Z</time>
      </trkpt>
      <trkpt lat="44.72705" lon="5.04155">
        <ele>229.41</ele>
        <time>2023-05-19T09:41:35Z</time>
      </trkpt>
      <trkpt lat="44.72692" lon="5.04132">
        <ele>226.53</ele>
        <time>2023-05-19T09:41:51Z</time>
      </trkpt>
      <trkpt lat="44.7268" lon="5.04113">
        <ele>223.16</ele>
        <time>2023-05-19T09:42:06Z</time>
      </trkpt>
      <trkpt lat="44.72661" lon="5.04087">
        <ele>220.28</ele>
        <time>2023-05-19T09:42:26Z</time>
      </trkpt>
      <trkpt lat="44.72648" lon="5.04062">
        <ele>218.36</ele>
        <time>2023-05-19T09:42:44Z</time>
      </trkpt>
      <trkpt lat="44.72644" lon="5.04031">
        <ele>217.4</ele>
        <time>2023-05-19T09:43:02Z</time>
      </trkpt>
      <trkpt lat="44.72646" lon="5.04028">
        <ele>218.36</ele>
        <time>2023-05-19T09:43:14Z</time>
      </trkpt>
      <trkpt lat="44.72659" lon="5.04014">
        <ele>214.99</ele>
        <time>2023-05-19T09:43:26Z</time>
      </trkpt>
      <trkpt lat="44.7266" lon="5.04012">
        <ele>214.51</ele>
        <time>2023-05-19T09:43:29Z</time>
      </trkpt>
      <trkpt lat="44.72661" lon="5.04012">
        <ele>214.51</ele>
        <time>2023-05-19T09:43:30Z</time>
      </trkpt>
      <trkpt lat="44.72662" lon="5.04011">
        <ele>214.51</ele>
        <time>2023-05-19T09:43:31Z</time>
      </trkpt>
      <trkpt lat="44.72681" lon="5.04001">
        <ele>211.15</ele>
        <time>2023-05-19T09:43:45Z</time>
      </trkpt>
      <trkpt lat="44.72703" lon="5.03989">
        <ele>207.78</ele>
        <time>2023-05-19T09:44:02Z</time>
      </trkpt>
      <trkpt lat="44.72715" lon="5.03983">
        <ele>204.9</ele>
        <time>2023-05-19T09:44:12Z</time>
      </trkpt>
      <trkpt lat="44.7273" lon="5.03976">
        <ele>203.46</ele>
        <time>2023-05-19T09:44:24Z</time>
      </trkpt>
      <trkpt lat="44.72743" lon="5.03962">
        <ele>203.46</ele>
        <time>2023-05-19T09:44:40Z</time>
      </trkpt>
      <trkpt lat="44.72751" lon="5.03947">
        <ele>204.9</ele>
        <time>2023-05-19T09:44:50Z</time>
      </trkpt>
      <trkpt lat="44.72763" lon="5.0392">
        <ele>206.82</ele>
        <time>2023-05-19T09:45:07Z</time>
      </trkpt>
      <trkpt lat="44.72767" lon="5.03912">
        <ele>207.3</ele>
        <time>2023-05-19T09:45:13Z</time>
      </trkpt>
      <trkpt lat="44.72778" lon="5.03892">
        <ele>210.19</ele>
        <time>2023-05-19T09:45:28Z</time>
      </trkpt>
      <trkpt lat="44.72781" lon="5.03873">
        <ele>212.11</ele>
        <time>2023-05-19T09:45:42Z</time>
      </trkpt>
      <trkpt lat="44.72787" lon="5.03856">
        <ele>214.03</ele>
        <time>2023-05-19T09:45:56Z</time>
      </trkpt>
      <trkpt lat="44.72789" lon="5.03848">
        <ele>214.99</ele>
        <time>2023-05-19T09:46:02Z</time>
      </trkpt>
      <trkpt lat="44.72798" lon="5.03829">
        <ele>215.47</ele>
        <time>2023-05-19T09:46:17Z</time>
      </trkpt>
      <trkpt lat="44.72801" lon="5.03823">
        <ele>216.43</ele>
        <time>2023-05-19T09:46:22Z</time>
      </trkpt>
      <trkpt lat="44.72802" lon="5.03821">
        <ele>216.91</ele>
        <time>2023-05-19T09:46:24Z</time>
      </trkpt>
      <trkpt lat="44.72805" lon="5.03818">
        <ele>216.91</ele>
        <time>2023-05-19T09:46:27Z</time>
      </trkpt>
      <trkpt lat="44.72805" lon="5.03817">
        <ele>217.4</ele>
        <time>2023-05-19T09:46:28Z</time>
      </trkpt>
      <trkpt lat="44.72806" lon="5.03816">
        <ele>217.4</ele>
        <time>2023-05-19T09:46:29Z</time>
      </trkpt>
      <trkpt lat="44.72817" lon="5.03802">
        <ele>218.84</ele>
        <time>2023-05-19T09:46:43Z</time>
      </trkpt>
      <trkpt lat="44.72826" lon="5.03788">
        <ele>221.72</ele>
        <time>2023-05-19T09:46:57Z</time>
      </trkpt>
      <trkpt lat="44.72835" lon="5.03773">
        <ele>223.16</ele>
        <time>2023-05-19T09:47:10Z</time>
      </trkpt>
      <trkpt lat="44.72841" lon="5.03777">
        <ele>224.61</ele>
        <time>2023-05-19T09:47:23Z</time>
      </trkpt>
      <trkpt lat="44.72839" lon="5.03794">
        <ele>224.61</ele>
        <time>2023-05-19T09:47:38Z</time>
      </trkpt>
      <trkpt lat="44.72837" lon="5.03807">
        <ele>224.61</ele>
        <time>2023-05-19T09:47:48Z</time>
      </trkpt>
      <trkpt lat="44.72835" lon="5.03813">
        <ele>223.16</ele>
        <time>2023-05-19T09:47:53Z</time>
      </trkpt>
      <trkpt lat="44.72834" lon="5.03837">
        <ele>223.16</ele>
        <time>2023-05-19T09:48:09Z</time>
      </trkpt>
      <trkpt lat="44.72833" lon="5.0387">
        <ele>223.16</ele>
        <time>2023-05-19T09:48:29Z</time>
      </trkpt>
      <trkpt lat="44.72836" lon="5.03899">
        <ele>221.72</ele>
        <time>2023-05-19T09:48:47Z</time>
      </trkpt>
      <trkpt lat="44.72841" lon="5.03924">
        <ele>220.76</ele>
        <time>2023-05-19T09:49:03Z</time>
      </trkpt>
      <trkpt lat="44.7285" lon="5.03952">
        <ele>220.28</ele>
        <time>2023-05-19T09:49:21Z</time>
      </trkpt>
      <trkpt lat="44.7286" lon="5.03973">
        <ele>219.8</ele>
        <time>2023-05-19T09:49:36Z</time>
      </trkpt>
      <trkpt lat="44.72866" lon="5.03983">
        <ele>219.32</ele>
        <time>2023-05-19T09:49:44Z</time>
      </trkpt>
      <trkpt lat="44.72867" lon="5.03984">
        <ele>219.32</ele>
        <time>2023-05-19T09:49:45Z</time>
      </trkpt>
      <trkpt lat="44.72876" lon="5.03997">
        <ele>218.84</ele>
        <time>2023-05-19T09:49:55Z</time>
      </trkpt>
      <trkpt lat="44.72877" lon="5.03998">
        <ele>218.36</ele>
        <time>2023-05-19T09:49:56Z</time>
      </trkpt>
      <trkpt lat="44.72891" lon="5.04018">
        <ele>217.88</ele>
        <time>2023-05-19T09:50:12Z</time>
      </trkpt>
      <trkpt lat="44.72902" lon="5.04037">
        <ele>217.4</ele>
        <time>2023-05-19T09:50:27Z</time>
      </trkpt>
      <trkpt lat="44.72913" lon="5.04054">
        <ele>216.91</ele>
        <time>2023-05-19T09:50:42Z</time>
      </trkpt>
      <trkpt lat="44.7293" lon="5.0407">
        <ele>215.47</ele>
        <time>2023-05-19T09:51:00Z</time>
      </trkpt>
      <trkpt lat="44.72953" lon="5.04078">
        <ele>216.43</ele>
        <time>2023-05-19T09:51:19Z</time>
      </trkpt>
      <trkpt lat="44.72971" lon="5.04083">
        <ele>214.99</ele>
        <time>2023-05-19T09:51:36Z</time>
      </trkpt>
      <trkpt lat="44.72977" lon="5.04084">
        <ele>214.99</ele>
        <time>2023-05-19T09:51:41Z</time>
      </trkpt>
      <trkpt lat="44.7298" lon="5.04085">
        <ele>214.99</ele>
        <time>2023-05-19T09:51:44Z</time>
      </trkpt>
      <trkpt lat="44.72981" lon="5.04086">
        <ele>214.99</ele>
        <time>2023-05-19T09:51:45Z</time>
      </trkpt>
      <trkpt lat="44.72998" lon="5.04091">
        <ele>214.51</ele>
        <time>2023-05-19T09:52:01Z</time>
      </trkpt>
      <trkpt lat="44.73006" lon="5.04095">
        <ele>214.51</ele>
        <time>2023-05-19T09:52:08Z</time>
      </trkpt>
      <trkpt lat="44.73011" lon="5.04099">
        <ele>214.51</ele>
        <time>2023-05-19T09:52:14Z</time>
      </trkpt>
      <trkpt lat="44.73014" lon="5.041">
        <ele>215.95</ele>
        <time>2023-05-19T09:52:16Z</time>
      </trkpt>
      <trkpt lat="44.73032" lon="5.04107">
        <ele>216.43</ele>
        <time>2023-05-19T09:52:30Z</time>
      </trkpt>
      <trkpt lat="44.73051" lon="5.04116">
        <ele>217.4</ele>
        <time>2023-05-19T09:52:47Z</time>
      </trkpt>
      <trkpt lat="44.73067" lon="5.04124">
        <ele>217.88</ele>
        <time>2023-05-19T09:53:02Z</time>
      </trkpt>
      <trkpt lat="44.73084" lon="5.04137">
        <ele>217.88</ele>
        <time>2023-05-19T09:53:18Z</time>
      </trkpt>
      <trkpt lat="44.73102" lon="5.04147">
        <ele>219.32</ele>
        <time>2023-05-19T09:53:34Z</time>
      </trkpt>
      <trkpt lat="44.73117" lon="5.04159">
        <ele>220.28</ele>
        <time>2023-05-19T09:53:50Z</time>
      </trkpt>
      <trkpt lat="44.73133" lon="5.04172">
        <ele>221.24</ele>
        <time>2023-05-19T09:54:06Z</time>
      </trkpt>
      <trkpt lat="44.73145" lon="5.04182">
        <ele>222.68</ele>
        <time>2023-05-19T09:54:18Z</time>
      </trkpt>
      <trkpt lat="44.73162" lon="5.04194">
        <ele>224.12</ele>
        <time>2023-05-19T09:54:34Z</time>
      </trkpt>
      <trkpt lat="44.73178" lon="5.04205">
        <ele>225.09</ele>
        <time>2023-05-19T09:54:49Z</time>
      </trkpt>
      <trkpt lat="44.73181" lon="5.04207">
        <ele>225.57</ele>
        <time>2023-05-19T09:54:52Z</time>
      </trkpt>
      <trkpt lat="44.73194" lon="5.04218">
        <ele>227.01</ele>
        <time>2023-05-19T09:55:06Z</time>
      </trkpt>
      <trkpt lat="44.732" lon="5.04226">
        <ele>228.93</ele>
        <time>2023-05-19T09:55:14Z</time>
      </trkpt>
      <trkpt lat="44.73212" lon="5.04239">
        <ele>228.93</ele>
        <time>2023-05-19T09:55:28Z</time>
      </trkpt>
      <trkpt lat="44.73212" lon="5.0424">
        <ele>228.93</ele>
        <time>2023-05-19T09:55:29Z</time>
      </trkpt>
      <trkpt lat="44.73225" lon="5.04258">
        <ele>228.93</ele>
        <time>2023-05-19T09:55:45Z</time>
      </trkpt>
      <trkpt lat="44.73228" lon="5.04262">
        <ele>228.93</ele>
        <time>2023-05-19T09:55:49Z</time>
      </trkpt>
      <trkpt lat="44.73229" lon="5.04264">
        <ele>228.93</ele>
        <time>2023-05-19T09:55:50Z</time>
      </trkpt>
      <trkpt lat="44.73233" lon="5.04271">
        <ele>230.37</ele>
        <time>2023-05-19T09:55:56Z</time>
      </trkpt>
      <trkpt lat="44.73244" lon="5.04296">
        <ele>231.33</ele>
        <time>2023-05-19T09:56:15Z</time>
      </trkpt>
      <trkpt lat="44.73255" lon="5.04325">
        <ele>232.78</ele>
        <time>2023-05-19T09:56:35Z</time>
      </trkpt>
      <trkpt lat="44.73262" lon="5.04346">
        <ele>233.74</ele>
        <time>2023-05-19T09:56:50Z</time>
      </trkpt>
      <trkpt lat="44.7327" lon="5.04369">
        <ele>234.7</ele>
        <time>2023-05-19T09:57:04Z</time>
      </trkpt>
      <trkpt lat="44.73271" lon="5.0437">
        <ele>235.18</ele>
        <time>2023-05-19T09:57:05Z</time>
      </trkpt>
      <trkpt lat="44.73281" lon="5.04385">
        <ele>236.62</ele>
        <time>2023-05-19T09:57:19Z</time>
      </trkpt>
      <trkpt lat="44.7329" lon="5.04401">
        <ele>238.06</ele>
        <time>2023-05-19T09:57:33Z</time>
      </trkpt>
      <trkpt lat="44.73299" lon="5.04416">
        <ele>239.99</ele>
        <time>2023-05-19T09:57:47Z</time>
      </trkpt>
      <trkpt lat="44.73309" lon="5.04428">
        <ele>241.43</ele>
        <time>2023-05-19T09:58:01Z</time>
      </trkpt>
      <trkpt lat="44.73316" lon="5.04439">
        <ele>242.39</ele>
        <time>2023-05-19T09:58:13Z</time>
      </trkpt>
      <trkpt lat="44.73327" lon="5.04457">
        <ele>244.79</ele>
        <time>2023-05-19T09:58:30Z</time>
      </trkpt>
      <trkpt lat="44.73331" lon="5.04461">
        <ele>245.75</ele>
        <time>2023-05-19T09:58:35Z</time>
      </trkpt>
      <trkpt lat="44.73341" lon="5.04476">
        <ele>247.68</ele>
        <time>2023-05-19T09:58:51Z</time>
      </trkpt>
      <trkpt lat="44.7335" lon="5.0449">
        <ele>249.6</ele>
        <time>2023-05-19T09:59:06Z</time>
      </trkpt>
      <trkpt lat="44.73359" lon="5.04509">
        <ele>252</ele>
        <time>2023-05-19T09:59:22Z</time>
      </trkpt>
      <trkpt lat="44.73369" lon="5.04527">
        <ele>253.44</ele>
        <time>2023-05-19T09:59:38Z</time>
      </trkpt>
      <trkpt lat="44.73374" lon="5.04544">
        <ele>256.33</ele>
        <time>2023-05-19T09:59:52Z</time>
      </trkpt>
      <trkpt lat="44.73378" lon="5.0456">
        <ele>257.77</ele>
        <time>2023-05-19T10:00:05Z</time>
      </trkpt>
      <trkpt lat="44.73384" lon="5.04578">
        <ele>260.17</ele>
        <time>2023-05-19T10:00:20Z</time>
      </trkpt>
      <trkpt lat="44.73388" lon="5.0459">
        <ele>261.14</ele>
        <time>2023-05-19T10:00:29Z</time>
      </trkpt>
      <trkpt lat="44.73394" lon="5.04589">
        <ele>263.54</ele>
        <time>2023-05-19T10:00:42Z</time>
      </trkpt>
      <trkpt lat="44.73393" lon="5.0457">
        <ele>266.42</ele>
        <time>2023-05-19T10:00:59Z</time>
      </trkpt>
      <trkpt lat="44.73401" lon="5.0458">
        <ele>268.83</ele>
        <time>2023-05-19T10:01:14Z</time>
      </trkpt>
      <trkpt lat="44.7341" lon="5.04596">
        <ele>270.75</ele>
        <time>2023-05-19T10:01:30Z</time>
      </trkpt>
      <trkpt lat="44.73419" lon="5.04608">
        <ele>273.63</ele>
        <time>2023-05-19T10:01:45Z</time>
      </trkpt>
      <trkpt lat="44.73428" lon="5.04618">
        <ele>276.52</ele>
        <time>2023-05-19T10:01:59Z</time>
      </trkpt>
      <trkpt lat="44.73438" lon="5.04632">
        <ele>278.44</ele>
        <time>2023-05-19T10:02:14Z</time>
      </trkpt>
      <trkpt lat="44.73448" lon="5.04645">
        <ele>280.84</ele>
        <time>2023-05-19T10:02:28Z</time>
      </trkpt>
      <trkpt lat="44.73458" lon="5.04656">
        <ele>282.77</ele>
        <time>2023-05-19T10:02:43Z</time>
      </trkpt>
      <trkpt lat="44.73471" lon="5.04666">
        <ele>285.17</ele>
        <time>2023-05-19T10:02:59Z</time>
      </trkpt>
      <trkpt lat="44.73481" lon="5.04676">
        <ele>287.09</ele>
        <time>2023-05-19T10:03:14Z</time>
      </trkpt>
      <trkpt lat="44.73495" lon="5.04687">
        <ele>288.05</ele>
        <time>2023-05-19T10:03:29Z</time>
      </trkpt>
      <trkpt lat="44.7351" lon="5.04698">
        <ele>289.49</ele>
        <time>2023-05-19T10:03:45Z</time>
      </trkpt>
      <trkpt lat="44.73514" lon="5.04705">
        <ele>289.97</ele>
        <time>2023-05-19T10:03:51Z</time>
      </trkpt>
      <trkpt lat="44.73525" lon="5.04717">
        <ele>291.9</ele>
        <time>2023-05-19T10:04:06Z</time>
      </trkpt>
      <trkpt lat="44.73536" lon="5.0473">
        <ele>293.34</ele>
        <time>2023-05-19T10:04:20Z</time>
      </trkpt>
      <trkpt lat="44.7355" lon="5.04743">
        <ele>294.78</ele>
        <time>2023-05-19T10:04:37Z</time>
      </trkpt>
      <trkpt lat="44.73562" lon="5.04755">
        <ele>296.7</ele>
        <time>2023-05-19T10:04:52Z</time>
      </trkpt>
      <trkpt lat="44.73576" lon="5.04765">
        <ele>299.11</ele>
        <time>2023-05-19T10:05:07Z</time>
      </trkpt>
      <trkpt lat="44.7359" lon="5.04777">
        <ele>299.59</ele>
        <time>2023-05-19T10:05:24Z</time>
      </trkpt>
      <trkpt lat="44.73602" lon="5.04786">
        <ele>300.55</ele>
        <time>2023-05-19T10:05:38Z</time>
      </trkpt>
      <trkpt lat="44.73616" lon="5.04797">
        <ele>302.47</ele>
        <time>2023-05-19T10:05:55Z</time>
      </trkpt>
      <trkpt lat="44.73628" lon="5.04805">
        <ele>303.43</ele>
        <time>2023-05-19T10:06:10Z</time>
      </trkpt>
      <trkpt lat="44.7364" lon="5.04812">
        <ele>305.84</ele>
        <time>2023-05-19T10:06:25Z</time>
      </trkpt>
      <trkpt lat="44.73655" lon="5.04817">
        <ele>306.8</ele>
        <time>2023-05-19T10:06:41Z</time>
      </trkpt>
      <trkpt lat="44.73669" lon="5.04821">
        <ele>309.2</ele>
        <time>2023-05-19T10:06:56Z</time>
      </trkpt>
      <trkpt lat="44.73683" lon="5.04825">
        <ele>311.12</ele>
        <time>2023-05-19T10:07:10Z</time>
      </trkpt>
      <trkpt lat="44.73697" lon="5.04829">
        <ele>313.05</ele>
        <time>2023-05-19T10:07:24Z</time>
      </trkpt>
      <trkpt lat="44.73712" lon="5.04833">
        <ele>314.49</ele>
        <time>2023-05-19T10:07:39Z</time>
      </trkpt>
      <trkpt lat="44.73726" lon="5.04832">
        <ele>316.89</ele>
        <time>2023-05-19T10:07:54Z</time>
      </trkpt>
      <trkpt lat="44.7374" lon="5.04833">
        <ele>318.81</ele>
        <time>2023-05-19T10:08:08Z</time>
      </trkpt>
      <trkpt lat="44.73755" lon="5.04839">
        <ele>320.74</ele>
        <time>2023-05-19T10:08:23Z</time>
      </trkpt>
      <trkpt lat="44.7377" lon="5.04844">
        <ele>322.66</ele>
        <time>2023-05-19T10:08:38Z</time>
      </trkpt>
      <trkpt lat="44.73786" lon="5.04849">
        <ele>324.58</ele>
        <time>2023-05-19T10:08:54Z</time>
      </trkpt>
      <trkpt lat="44.738" lon="5.04852">
        <ele>326.02</ele>
        <time>2023-05-19T10:09:08Z</time>
      </trkpt>
      <trkpt lat="44.73805" lon="5.04851">
        <ele>326.02</ele>
        <time>2023-05-19T10:09:13Z</time>
      </trkpt>
      <trkpt lat="44.7382" lon="5.04846">
        <ele>328.43</ele>
        <time>2023-05-19T10:09:28Z</time>
      </trkpt>
      <trkpt lat="44.73834" lon="5.04842">
        <ele>330.83</ele>
        <time>2023-05-19T10:09:42Z</time>
      </trkpt>
      <trkpt lat="44.73849" lon="5.0484">
        <ele>332.75</ele>
        <time>2023-05-19T10:09:57Z</time>
      </trkpt>
      <trkpt lat="44.73855" lon="5.04842">
        <ele>333.23</ele>
        <time>2023-05-19T10:10:03Z</time>
      </trkpt>
      <trkpt lat="44.7387" lon="5.04848">
        <ele>333.71</ele>
        <time>2023-05-19T10:10:17Z</time>
      </trkpt>
      <trkpt lat="44.73889" lon="5.04855">
        <ele>334.2</ele>
        <time>2023-05-19T10:10:34Z</time>
      </trkpt>
      <trkpt lat="44.73904" lon="5.0486">
        <ele>335.16</ele>
        <time>2023-05-19T10:10:49Z</time>
      </trkpt>
      <trkpt lat="44.73923" lon="5.04861">
        <ele>335.64</ele>
        <time>2023-05-19T10:11:05Z</time>
      </trkpt>
      <trkpt lat="44.73942" lon="5.04861">
        <ele>336.6</ele>
        <time>2023-05-19T10:11:21Z</time>
      </trkpt>
      <trkpt lat="44.73966" lon="5.04859">
        <ele>334.68</ele>
        <time>2023-05-19T10:11:41Z</time>
      </trkpt>
      <trkpt lat="44.73986" lon="5.04857">
        <ele>333.71</ele>
        <time>2023-05-19T10:11:58Z</time>
      </trkpt>
      <trkpt lat="44.74007" lon="5.04858">
        <ele>334.68</ele>
        <time>2023-05-19T10:12:16Z</time>
      </trkpt>
      <trkpt lat="44.74026" lon="5.04859">
        <ele>334.68</ele>
        <time>2023-05-19T10:12:33Z</time>
      </trkpt>
      <trkpt lat="44.74047" lon="5.04862">
        <ele>335.64</ele>
        <time>2023-05-19T10:12:51Z</time>
      </trkpt>
      <trkpt lat="44.74068" lon="5.04864">
        <ele>336.12</ele>
        <time>2023-05-19T10:13:08Z</time>
      </trkpt>
      <trkpt lat="44.74076" lon="5.04864">
        <ele>337.08</ele>
        <time>2023-05-19T10:13:24Z</time>
      </trkpt>
      <trkpt lat="44.74077" lon="5.04863">
        <ele>337.56</ele>
        <time>2023-05-19T10:13:42Z</time>
      </trkpt>
      <trkpt lat="44.74078" lon="5.04862">
        <ele>336.12</ele>
        <time>2023-05-19T10:15:04Z</time>
      </trkpt>
      <trkpt lat="44.74082" lon="5.04859">
        <ele>337.56</ele>
        <time>2023-05-19T10:15:27Z</time>
      </trkpt>
      <trkpt lat="44.74094" lon="5.04851">
        <ele>339.48</ele>
        <time>2023-05-19T10:15:43Z</time>
      </trkpt>
      <trkpt lat="44.74095" lon="5.0485">
        <ele>339</ele>
        <time>2023-05-19T10:15:44Z</time>
      </trkpt>
      <trkpt lat="44.74109" lon="5.04841">
        <ele>340.92</ele>
        <time>2023-05-19T10:16:01Z</time>
      </trkpt>
      <trkpt lat="44.7412" lon="5.04835">
        <ele>342.85</ele>
        <time>2023-05-19T10:16:14Z</time>
      </trkpt>
      <trkpt lat="44.74132" lon="5.04828">
        <ele>344.77</ele>
        <time>2023-05-19T10:16:30Z</time>
      </trkpt>
      <trkpt lat="44.74149" lon="5.04817">
        <ele>347.65</ele>
        <time>2023-05-19T10:16:47Z</time>
      </trkpt>
      <trkpt lat="44.74157" lon="5.0481">
        <ele>349.1</ele>
        <time>2023-05-19T10:17:02Z</time>
      </trkpt>
      <trkpt lat="44.74165" lon="5.04802">
        <ele>350.06</ele>
        <time>2023-05-19T10:17:12Z</time>
      </trkpt>
      <trkpt lat="44.74178" lon="5.04789">
        <ele>351.98</ele>
        <time>2023-05-19T10:17:26Z</time>
      </trkpt>
      <trkpt lat="44.74186" lon="5.04778">
        <ele>355.34</ele>
        <time>2023-05-19T10:17:38Z</time>
      </trkpt>
      <trkpt lat="44.74193" lon="5.04766">
        <ele>357.27</ele>
        <time>2023-05-19T10:17:53Z</time>
      </trkpt>
      <trkpt lat="44.742" lon="5.04755">
        <ele>360.63</ele>
        <time>2023-05-19T10:18:09Z</time>
      </trkpt>
      <trkpt lat="44.74207" lon="5.04743">
        <ele>363.04</ele>
        <time>2023-05-19T10:18:25Z</time>
      </trkpt>
      <trkpt lat="44.74214" lon="5.04735">
        <ele>365.92</ele>
        <time>2023-05-19T10:18:39Z</time>
      </trkpt>
      <trkpt lat="44.74224" lon="5.04728">
        <ele>368.8</ele>
        <time>2023-05-19T10:18:56Z</time>
      </trkpt>
      <trkpt lat="44.74237" lon="5.04722">
        <ele>371.21</ele>
        <time>2023-05-19T10:19:11Z</time>
      </trkpt>
      <trkpt lat="44.74248" lon="5.04723">
        <ele>373.61</ele>
        <time>2023-05-19T10:19:27Z</time>
      </trkpt>
      <trkpt lat="44.74264" lon="5.04733">
        <ele>376.49</ele>
        <time>2023-05-19T10:19:45Z</time>
      </trkpt>
      <trkpt lat="44.7428" lon="5.04745">
        <ele>378.42</ele>
        <time>2023-05-19T10:20:02Z</time>
      </trkpt>
      <trkpt lat="44.74294" lon="5.04754">
        <ele>379.38</ele>
        <time>2023-05-19T10:20:17Z</time>
      </trkpt>
      <trkpt lat="44.743" lon="5.04756">
        <ele>379.38</ele>
        <time>2023-05-19T10:20:31Z</time>
      </trkpt>
      <trkpt lat="44.74314" lon="5.04762">
        <ele>381.78</ele>
        <time>2023-05-19T10:26:20Z</time>
      </trkpt>
      <trkpt lat="44.74321" lon="5.04764">
        <ele>382.26</ele>
        <time>2023-05-19T10:26:27Z</time>
      </trkpt>
      <trkpt lat="44.7434" lon="5.04762">
        <ele>383.22</ele>
        <time>2023-05-19T10:26:44Z</time>
      </trkpt>
      <trkpt lat="44.7435" lon="5.04762">
        <ele>383.7</ele>
        <time>2023-05-19T10:26:51Z</time>
      </trkpt>
      <trkpt lat="44.74372" lon="5.04772">
        <ele>384.18</ele>
        <time>2023-05-19T10:27:06Z</time>
      </trkpt>
      <trkpt lat="44.74393" lon="5.04779">
        <ele>384.18</ele>
        <time>2023-05-19T10:27:22Z</time>
      </trkpt>
      <trkpt lat="44.74405" lon="5.04782">
        <ele>383.22</ele>
        <time>2023-05-19T10:27:28Z</time>
      </trkpt>
      <trkpt lat="44.74429" lon="5.04785">
        <ele>381.3</ele>
        <time>2023-05-19T10:27:43Z</time>
      </trkpt>
      <trkpt lat="44.74447" lon="5.04788">
        <ele>381.3</ele>
        <time>2023-05-19T10:27:54Z</time>
      </trkpt>
      <trkpt lat="44.74469" lon="5.04793">
        <ele>380.82</ele>
        <time>2023-05-19T10:28:10Z</time>
      </trkpt>
      <trkpt lat="44.74488" lon="5.04797">
        <ele>379.86</ele>
        <time>2023-05-19T10:28:24Z</time>
      </trkpt>
      <trkpt lat="44.74512" lon="5.04798">
        <ele>379.38</ele>
        <time>2023-05-19T10:28:38Z</time>
      </trkpt>
      <trkpt lat="44.74533" lon="5.04797">
        <ele>380.82</ele>
        <time>2023-05-19T10:28:53Z</time>
      </trkpt>
      <trkpt lat="44.74557" lon="5.04793">
        <ele>381.3</ele>
        <time>2023-05-19T10:29:07Z</time>
      </trkpt>
      <trkpt lat="44.74558" lon="5.04793">
        <ele>381.78</ele>
        <time>2023-05-19T10:29:08Z</time>
      </trkpt>
      <trkpt lat="44.74585" lon="5.048">
        <ele>383.22</ele>
        <time>2023-05-19T10:29:27Z</time>
      </trkpt>
      <trkpt lat="44.74615" lon="5.04799">
        <ele>384.18</ele>
        <time>2023-05-19T10:29:45Z</time>
      </trkpt>
      <trkpt lat="44.74625" lon="5.04798">
        <ele>385.15</ele>
        <time>2023-05-19T10:29:57Z</time>
      </trkpt>
      <trkpt lat="44.74641" lon="5.04798">
        <ele>386.59</ele>
        <time>2023-05-19T10:30:12Z</time>
      </trkpt>
      <trkpt lat="44.74655" lon="5.04803">
        <ele>387.07</ele>
        <time>2023-05-19T10:30:25Z</time>
      </trkpt>
      <trkpt lat="44.74661" lon="5.04809">
        <ele>388.03</ele>
        <time>2023-05-19T10:30:39Z</time>
      </trkpt>
      <trkpt lat="44.74664" lon="5.0481">
        <ele>388.51</ele>
        <time>2023-05-19T10:30:52Z</time>
      </trkpt>
      <trkpt lat="44.74681" lon="5.04805">
        <ele>391.39</ele>
        <time>2023-05-19T11:16:15Z</time>
      </trkpt>
      <trkpt lat="44.74688" lon="5.04805">
        <ele>391.87</ele>
        <time>2023-05-19T11:16:27Z</time>
      </trkpt>
      <trkpt lat="44.74698" lon="5.04809">
        <ele>393.32</ele>
        <time>2023-05-19T11:16:40Z</time>
      </trkpt>
      <trkpt lat="44.74712" lon="5.04809">
        <ele>394.28</ele>
        <time>2023-05-19T11:16:55Z</time>
      </trkpt>
      <trkpt lat="44.74724" lon="5.04809">
        <ele>394.76</ele>
        <time>2023-05-19T11:17:08Z</time>
      </trkpt>
      <trkpt lat="44.74742" lon="5.04808">
        <ele>396.2</ele>
        <time>2023-05-19T11:17:24Z</time>
      </trkpt>
      <trkpt lat="44.74755" lon="5.04809">
        <ele>395.24</ele>
        <time>2023-05-19T11:17:37Z</time>
      </trkpt>
      <trkpt lat="44.74772" lon="5.04813">
        <ele>397.16</ele>
        <time>2023-05-19T11:17:54Z</time>
      </trkpt>
      <trkpt lat="44.74795" lon="5.04812">
        <ele>398.12</ele>
        <time>2023-05-19T11:18:13Z</time>
      </trkpt>
      <trkpt lat="44.74808" lon="5.04811">
        <ele>399.08</ele>
        <time>2023-05-19T11:18:28Z</time>
      </trkpt>
      <trkpt lat="44.74825" lon="5.04811">
        <ele>399.08</ele>
        <time>2023-05-19T11:18:42Z</time>
      </trkpt>
      <trkpt lat="44.7483" lon="5.04811">
        <ele>399.08</ele>
        <time>2023-05-19T11:18:47Z</time>
      </trkpt>
      <trkpt lat="44.74847" lon="5.04809">
        <ele>399.57</ele>
        <time>2023-05-19T11:19:03Z</time>
      </trkpt>
      <trkpt lat="44.74865" lon="5.04808">
        <ele>400.05</ele>
        <time>2023-05-19T11:19:20Z</time>
      </trkpt>
      <trkpt lat="44.74878" lon="5.04809">
        <ele>399.08</ele>
        <time>2023-05-19T11:19:33Z</time>
      </trkpt>
      <trkpt lat="44.74893" lon="5.04808">
        <ele>398.6</ele>
        <time>2023-05-19T11:19:50Z</time>
      </trkpt>
      <trkpt lat="44.74913" lon="5.04805">
        <ele>398.6</ele>
        <time>2023-05-19T11:20:05Z</time>
      </trkpt>
      <trkpt lat="44.74933" lon="5.04798">
        <ele>398.6</ele>
        <time>2023-05-19T11:20:21Z</time>
      </trkpt>
      <trkpt lat="44.74951" lon="5.04787">
        <ele>401.01</ele>
        <time>2023-05-19T11:20:38Z</time>
      </trkpt>
      <trkpt lat="44.7496" lon="5.04779">
        <ele>401.97</ele>
        <time>2023-05-19T11:20:48Z</time>
      </trkpt>
      <trkpt lat="44.74977" lon="5.04765">
        <ele>402.93</ele>
        <time>2023-05-19T11:21:04Z</time>
      </trkpt>
      <trkpt lat="44.74983" lon="5.04762">
        <ele>401.01</ele>
        <time>2023-05-19T11:21:09Z</time>
      </trkpt>
      <trkpt lat="44.75001" lon="5.04759">
        <ele>399.08</ele>
        <time>2023-05-19T11:21:25Z</time>
      </trkpt>
      <trkpt lat="44.75021" lon="5.04749">
        <ele>397.16</ele>
        <time>2023-05-19T11:21:41Z</time>
      </trkpt>
      <trkpt lat="44.75037" lon="5.04738">
        <ele>396.68</ele>
        <time>2023-05-19T11:21:55Z</time>
      </trkpt>
      <trkpt lat="44.75045" lon="5.04733">
        <ele>396.2</ele>
        <time>2023-05-19T11:22:03Z</time>
      </trkpt>
      <trkpt lat="44.75063" lon="5.04726">
        <ele>397.64</ele>
        <time>2023-05-19T11:22:18Z</time>
      </trkpt>
      <trkpt lat="44.75073" lon="5.04721">
        <ele>397.64</ele>
        <time>2023-05-19T11:22:26Z</time>
      </trkpt>
      <trkpt lat="44.75095" lon="5.0471">
        <ele>397.16</ele>
        <time>2023-05-19T11:22:43Z</time>
      </trkpt>
      <trkpt lat="44.75115" lon="5.04704">
        <ele>398.6</ele>
        <time>2023-05-19T11:22:58Z</time>
      </trkpt>
      <trkpt lat="44.75133" lon="5.04702">
        <ele>398.6</ele>
        <time>2023-05-19T11:23:12Z</time>
      </trkpt>
      <trkpt lat="44.75147" lon="5.04702">
        <ele>399.57</ele>
        <time>2023-05-19T11:23:25Z</time>
      </trkpt>
      <trkpt lat="44.7516" lon="5.04705">
        <ele>400.53</ele>
        <time>2023-05-19T11:23:36Z</time>
      </trkpt>
      <trkpt lat="44.75177" lon="5.04706">
        <ele>401.49</ele>
        <time>2023-05-19T11:23:50Z</time>
      </trkpt>
      <trkpt lat="44.75188" lon="5.04708">
        <ele>402.45</ele>
        <time>2023-05-19T11:23:58Z</time>
      </trkpt>
      <trkpt lat="44.75206" lon="5.04711">
        <ele>403.89</ele>
        <time>2023-05-19T11:24:16Z</time>
      </trkpt>
      <trkpt lat="44.75215" lon="5.04709">
        <ele>404.37</ele>
        <time>2023-05-19T11:24:25Z</time>
      </trkpt>
      <trkpt lat="44.7523" lon="5.04702">
        <ele>404.85</ele>
        <time>2023-05-19T11:24:39Z</time>
      </trkpt>
      <trkpt lat="44.75243" lon="5.04692">
        <ele>406.29</ele>
        <time>2023-05-19T11:24:52Z</time>
      </trkpt>
      <trkpt lat="44.75255" lon="5.0468">
        <ele>407.26</ele>
        <time>2023-05-19T11:25:07Z</time>
      </trkpt>
      <trkpt lat="44.75272" lon="5.04664">
        <ele>408.7</ele>
        <time>2023-05-19T11:25:24Z</time>
      </trkpt>
      <trkpt lat="44.75288" lon="5.04656">
        <ele>409.18</ele>
        <time>2023-05-19T11:25:40Z</time>
      </trkpt>
      <trkpt lat="44.75302" lon="5.04644">
        <ele>411.1</ele>
        <time>2023-05-19T11:25:55Z</time>
      </trkpt>
      <trkpt lat="44.75303" lon="5.04644">
        <ele>411.58</ele>
        <time>2023-05-19T11:25:56Z</time>
      </trkpt>
      <trkpt lat="44.75305" lon="5.04642">
        <ele>411.58</ele>
        <time>2023-05-19T11:25:59Z</time>
      </trkpt>
      <trkpt lat="44.75323" lon="5.04635">
        <ele>412.06</ele>
        <time>2023-05-19T11:26:14Z</time>
      </trkpt>
      <trkpt lat="44.7534" lon="5.04629">
        <ele>412.54</ele>
        <time>2023-05-19T11:26:29Z</time>
      </trkpt>
      <trkpt lat="44.75356" lon="5.04626">
        <ele>414.47</ele>
        <time>2023-05-19T11:26:43Z</time>
      </trkpt>
      <trkpt lat="44.75371" lon="5.04625">
        <ele>414.95</ele>
        <time>2023-05-19T11:26:56Z</time>
      </trkpt>
      <trkpt lat="44.75388" lon="5.04618">
        <ele>416.39</ele>
        <time>2023-05-19T11:27:12Z</time>
      </trkpt>
      <trkpt lat="44.75402" lon="5.04604">
        <ele>416.87</ele>
        <time>2023-05-19T11:27:28Z</time>
      </trkpt>
      <trkpt lat="44.7542" lon="5.04595">
        <ele>417.83</ele>
        <time>2023-05-19T11:27:44Z</time>
      </trkpt>
      <trkpt lat="44.75434" lon="5.04593">
        <ele>420.23</ele>
        <time>2023-05-19T11:27:57Z</time>
      </trkpt>
      <trkpt lat="44.75435" lon="5.04592">
        <ele>420.71</ele>
        <time>2023-05-19T11:27:59Z</time>
      </trkpt>
      <trkpt lat="44.75438" lon="5.04591">
        <ele>420.71</ele>
        <time>2023-05-19T11:28:02Z</time>
      </trkpt>
      <trkpt lat="44.7545" lon="5.04587">
        <ele>423.12</ele>
        <time>2023-05-19T11:28:14Z</time>
      </trkpt>
      <trkpt lat="44.75461" lon="5.04584">
        <ele>424.56</ele>
        <time>2023-05-19T11:28:27Z</time>
      </trkpt>
      <trkpt lat="44.75475" lon="5.04582">
        <ele>426</ele>
        <time>2023-05-19T11:28:41Z</time>
      </trkpt>
      <trkpt lat="44.75488" lon="5.0458">
        <ele>427.44</ele>
        <time>2023-05-19T11:28:54Z</time>
      </trkpt>
      <trkpt lat="44.75503" lon="5.04571">
        <ele>428.89</ele>
        <time>2023-05-19T11:29:11Z</time>
      </trkpt>
      <trkpt lat="44.7552" lon="5.04564">
        <ele>429.85</ele>
        <time>2023-05-19T11:29:27Z</time>
      </trkpt>
      <trkpt lat="44.75534" lon="5.04563">
        <ele>432.25</ele>
        <time>2023-05-19T11:29:41Z</time>
      </trkpt>
      <trkpt lat="44.75542" lon="5.0456">
        <ele>433.69</ele>
        <time>2023-05-19T11:29:51Z</time>
      </trkpt>
      <trkpt lat="44.75554" lon="5.04553">
        <ele>436.1</ele>
        <time>2023-05-19T11:30:06Z</time>
      </trkpt>
      <trkpt lat="44.75564" lon="5.04546">
        <ele>438.02</ele>
        <time>2023-05-19T11:30:19Z</time>
      </trkpt>
      <trkpt lat="44.75578" lon="5.04547">
        <ele>439.46</ele>
        <time>2023-05-19T11:30:34Z</time>
      </trkpt>
      <trkpt lat="44.75585" lon="5.04549">
        <ele>440.42</ele>
        <time>2023-05-19T11:30:41Z</time>
      </trkpt>
      <trkpt lat="44.75591" lon="5.04549">
        <ele>441.38</ele>
        <time>2023-05-19T11:30:46Z</time>
      </trkpt>
      <trkpt lat="44.75609" lon="5.04556">
        <ele>442.82</ele>
        <time>2023-05-19T11:31:04Z</time>
      </trkpt>
      <trkpt lat="44.75619" lon="5.0456">
        <ele>445.23</ele>
        <time>2023-05-19T11:31:14Z</time>
      </trkpt>
      <trkpt lat="44.7562" lon="5.0456">
        <ele>445.23</ele>
        <time>2023-05-19T11:31:15Z</time>
      </trkpt>
      <trkpt lat="44.75628" lon="5.04564">
        <ele>446.19</ele>
        <time>2023-05-19T11:31:28Z</time>
      </trkpt>
      <trkpt lat="44.75634" lon="5.04565">
        <ele>447.63</ele>
        <time>2023-05-19T11:32:22Z</time>
      </trkpt>
      <trkpt lat="44.75646" lon="5.04565">
        <ele>450.03</ele>
        <time>2023-05-19T11:32:37Z</time>
      </trkpt>
      <trkpt lat="44.75656" lon="5.04567">
        <ele>453.4</ele>
        <time>2023-05-19T11:32:49Z</time>
      </trkpt>
      <trkpt lat="44.75668" lon="5.04575">
        <ele>454.36</ele>
        <time>2023-05-19T11:32:59Z</time>
      </trkpt>
      <trkpt lat="44.75689" lon="5.04591">
        <ele>455.32</ele>
        <time>2023-05-19T11:33:17Z</time>
      </trkpt>
      <trkpt lat="44.75703" lon="5.046">
        <ele>457.24</ele>
        <time>2023-05-19T11:33:32Z</time>
      </trkpt>
      <trkpt lat="44.75719" lon="5.0461">
        <ele>459.17</ele>
        <time>2023-05-19T11:33:45Z</time>
      </trkpt>
      <trkpt lat="44.75731" lon="5.04626">
        <ele>460.61</ele>
        <time>2023-05-19T11:33:59Z</time>
      </trkpt>
      <trkpt lat="44.75741" lon="5.04645">
        <ele>461.09</ele>
        <time>2023-05-19T11:34:13Z</time>
      </trkpt>
      <trkpt lat="44.75755" lon="5.04663">
        <ele>461.57</ele>
        <time>2023-05-19T11:34:29Z</time>
      </trkpt>
      <trkpt lat="44.75757" lon="5.04666">
        <ele>462.05</ele>
        <time>2023-05-19T11:34:32Z</time>
      </trkpt>
      <trkpt lat="44.7576" lon="5.04667">
        <ele>462.05</ele>
        <time>2023-05-19T11:34:34Z</time>
      </trkpt>
      <trkpt lat="44.75777" lon="5.04688">
        <ele>463.49</ele>
        <time>2023-05-19T11:34:50Z</time>
      </trkpt>
      <trkpt lat="44.75785" lon="5.04704">
        <ele>464.45</ele>
        <time>2023-05-19T11:35:02Z</time>
      </trkpt>
      <trkpt lat="44.75792" lon="5.04724">
        <ele>465.9</ele>
        <time>2023-05-19T11:35:15Z</time>
      </trkpt>
      <trkpt lat="44.75798" lon="5.04744">
        <ele>466.86</ele>
        <time>2023-05-19T11:35:28Z</time>
      </trkpt>
      <trkpt lat="44.75801" lon="5.04755">
        <ele>467.82</ele>
        <time>2023-05-19T11:35:35Z</time>
      </trkpt>
      <trkpt lat="44.75809" lon="5.04773">
        <ele>469.74</ele>
        <time>2023-05-19T11:35:48Z</time>
      </trkpt>
      <trkpt lat="44.7582" lon="5.04788">
        <ele>472.14</ele>
        <time>2023-05-19T11:36:03Z</time>
      </trkpt>
      <trkpt lat="44.75836" lon="5.04801">
        <ele>474.55</ele>
        <time>2023-05-19T11:36:21Z</time>
      </trkpt>
      <trkpt lat="44.75848" lon="5.04814">
        <ele>476.95</ele>
        <time>2023-05-19T11:36:35Z</time>
      </trkpt>
      <trkpt lat="44.75859" lon="5.04829">
        <ele>479.35</ele>
        <time>2023-05-19T11:36:51Z</time>
      </trkpt>
      <trkpt lat="44.75872" lon="5.04848">
        <ele>481.76</ele>
        <time>2023-05-19T11:37:08Z</time>
      </trkpt>
      <trkpt lat="44.75885" lon="5.04857">
        <ele>482.72</ele>
        <time>2023-05-19T11:37:24Z</time>
      </trkpt>
      <trkpt lat="44.75892" lon="5.04863">
        <ele>482.72</ele>
        <time>2023-05-19T11:37:38Z</time>
      </trkpt>
      <trkpt lat="44.759" lon="5.04869">
        <ele>481.76</ele>
        <time>2023-05-19T11:37:52Z</time>
      </trkpt>
      <trkpt lat="44.75903" lon="5.04869">
        <ele>481.76</ele>
        <time>2023-05-19T11:39:00Z</time>
      </trkpt>
      <trkpt lat="44.75907" lon="5.04871">
        <ele>481.76</ele>
        <time>2023-05-19T11:39:19Z</time>
      </trkpt>
      <trkpt lat="44.75916" lon="5.04874">
        <ele>480.8</ele>
        <time>2023-05-19T11:39:34Z</time>
      </trkpt>
      <trkpt lat="44.75934" lon="5.04884">
        <ele>478.39</ele>
        <time>2023-05-19T11:39:51Z</time>
      </trkpt>
      <trkpt lat="44.75945" lon="5.04894">
        <ele>476.95</ele>
        <time>2023-05-19T11:40:06Z</time>
      </trkpt>
      <trkpt lat="44.7596" lon="5.04899">
        <ele>475.51</ele>
        <time>2023-05-19T11:40:22Z</time>
      </trkpt>
      <trkpt lat="44.75975" lon="5.04906">
        <ele>474.55</ele>
        <time>2023-05-19T11:40:36Z</time>
      </trkpt>
      <trkpt lat="44.75997" lon="5.04911">
        <ele>473.59</ele>
        <time>2023-05-19T11:40:52Z</time>
      </trkpt>
      <trkpt lat="44.76017" lon="5.04917">
        <ele>471.66</ele>
        <time>2023-05-19T11:41:07Z</time>
      </trkpt>
      <trkpt lat="44.76041" lon="5.04923">
        <ele>470.22</ele>
        <time>2023-05-19T11:41:26Z</time>
      </trkpt>
      <trkpt lat="44.7606" lon="5.04931">
        <ele>470.22</ele>
        <time>2023-05-19T11:41:41Z</time>
      </trkpt>
      <trkpt lat="44.76079" lon="5.04938">
        <ele>470.22</ele>
        <time>2023-05-19T11:41:58Z</time>
      </trkpt>
      <trkpt lat="44.76096" lon="5.04944">
        <ele>469.74</ele>
        <time>2023-05-19T11:42:13Z</time>
      </trkpt>
      <trkpt lat="44.76114" lon="5.04947">
        <ele>469.74</ele>
        <time>2023-05-19T11:42:27Z</time>
      </trkpt>
      <trkpt lat="44.76131" lon="5.04948">
        <ele>469.74</ele>
        <time>2023-05-19T11:42:40Z</time>
      </trkpt>
      <trkpt lat="44.76146" lon="5.0495">
        <ele>469.26</ele>
        <time>2023-05-19T11:42:52Z</time>
      </trkpt>
      <trkpt lat="44.76149" lon="5.04951">
        <ele>468.78</ele>
        <time>2023-05-19T11:42:54Z</time>
      </trkpt>
      <trkpt lat="44.76152" lon="5.04951">
        <ele>468.78</ele>
        <time>2023-05-19T11:42:56Z</time>
      </trkpt>
      <trkpt lat="44.76173" lon="5.04953">
        <ele>467.34</ele>
        <time>2023-05-19T11:43:10Z</time>
      </trkpt>
      <trkpt lat="44.76198" lon="5.04957">
        <ele>466.38</ele>
        <time>2023-05-19T11:43:28Z</time>
      </trkpt>
      <trkpt lat="44.76203" lon="5.04956">
        <ele>465.9</ele>
        <time>2023-05-19T11:43:46Z</time>
      </trkpt>
      <trkpt lat="44.76204" lon="5.04954">
        <ele>465.9</ele>
        <time>2023-05-19T11:44:11Z</time>
      </trkpt>
      <trkpt lat="44.76203" lon="5.04947">
        <ele>464.93</ele>
        <time>2023-05-19T11:44:18Z</time>
      </trkpt>
      <trkpt lat="44.76202" lon="5.04945">
        <ele>464.93</ele>
        <time>2023-05-19T11:44:20Z</time>
      </trkpt>
      <trkpt lat="44.76208" lon="5.04938">
        <ele>463.97</ele>
        <time>2023-05-19T11:44:30Z</time>
      </trkpt>
      <trkpt lat="44.76223" lon="5.04939">
        <ele>461.57</ele>
        <time>2023-05-19T11:44:45Z</time>
      </trkpt>
      <trkpt lat="44.76242" lon="5.04939">
        <ele>460.13</ele>
        <time>2023-05-19T11:45:00Z</time>
      </trkpt>
      <trkpt lat="44.76264" lon="5.04936">
        <ele>457.72</ele>
        <time>2023-05-19T11:45:18Z</time>
      </trkpt>
      <trkpt lat="44.76285" lon="5.04928">
        <ele>456.28</ele>
        <time>2023-05-19T11:45:35Z</time>
      </trkpt>
      <trkpt lat="44.76287" lon="5.04925">
        <ele>455.8</ele>
        <time>2023-05-19T11:45:37Z</time>
      </trkpt>
      <trkpt lat="44.76294" lon="5.0492">
        <ele>455.8</ele>
        <time>2023-05-19T11:45:43Z</time>
      </trkpt>
      <trkpt lat="44.76296" lon="5.04917">
        <ele>455.8</ele>
        <time>2023-05-19T11:45:45Z</time>
      </trkpt>
      <trkpt lat="44.76309" lon="5.04901">
        <ele>454.36</ele>
        <time>2023-05-19T11:45:58Z</time>
      </trkpt>
      <trkpt lat="44.76318" lon="5.0489">
        <ele>452.92</ele>
        <time>2023-05-19T11:46:07Z</time>
      </trkpt>
      <trkpt lat="44.76329" lon="5.04866">
        <ele>450.52</ele>
        <time>2023-05-19T11:46:23Z</time>
      </trkpt>
      <trkpt lat="44.76336" lon="5.04859">
        <ele>450.52</ele>
        <time>2023-05-19T11:46:30Z</time>
      </trkpt>
      <trkpt lat="44.76342" lon="5.04853">
        <ele>449.55</ele>
        <time>2023-05-19T11:46:36Z</time>
      </trkpt>
      <trkpt lat="44.76347" lon="5.04849">
        <ele>448.59</ele>
        <time>2023-05-19T11:46:41Z</time>
      </trkpt>
      <trkpt lat="44.76362" lon="5.04841">
        <ele>447.15</ele>
        <time>2023-05-19T11:46:54Z</time>
      </trkpt>
      <trkpt lat="44.76374" lon="5.04838">
        <ele>445.23</ele>
        <time>2023-05-19T11:47:04Z</time>
      </trkpt>
      <trkpt lat="44.76398" lon="5.04837">
        <ele>444.27</ele>
        <time>2023-05-19T11:47:21Z</time>
      </trkpt>
      <trkpt lat="44.76421" lon="5.04838">
        <ele>441.86</ele>
        <time>2023-05-19T11:47:39Z</time>
      </trkpt>
      <trkpt lat="44.76433" lon="5.04834">
        <ele>439.94</ele>
        <time>2023-05-19T11:47:50Z</time>
      </trkpt>
      <trkpt lat="44.76451" lon="5.04824">
        <ele>437.54</ele>
        <time>2023-05-19T11:48:05Z</time>
      </trkpt>
      <trkpt lat="44.76456" lon="5.04821">
        <ele>437.06</ele>
        <time>2023-05-19T11:48:10Z</time>
      </trkpt>
      <trkpt lat="44.7647" lon="5.04811">
        <ele>434.65</ele>
        <time>2023-05-19T11:48:23Z</time>
      </trkpt>
      <trkpt lat="44.76487" lon="5.04802">
        <ele>432.73</ele>
        <time>2023-05-19T11:48:38Z</time>
      </trkpt>
      <trkpt lat="44.76496" lon="5.04799">
        <ele>432.25</ele>
        <time>2023-05-19T11:48:47Z</time>
      </trkpt>
      <trkpt lat="44.76509" lon="5.0479">
        <ele>430.33</ele>
        <time>2023-05-19T11:48:59Z</time>
      </trkpt>
      <trkpt lat="44.76514" lon="5.0479">
        <ele>429.37</ele>
        <time>2023-05-19T11:49:04Z</time>
      </trkpt>
      <trkpt lat="44.76531" lon="5.04781">
        <ele>425.52</ele>
        <time>2023-05-19T11:49:19Z</time>
      </trkpt>
      <trkpt lat="44.76545" lon="5.04767">
        <ele>423.12</ele>
        <time>2023-05-19T11:49:34Z</time>
      </trkpt>
      <trkpt lat="44.76562" lon="5.04761">
        <ele>420.71</ele>
        <time>2023-05-19T11:49:48Z</time>
      </trkpt>
      <trkpt lat="44.76569" lon="5.0476">
        <ele>419.75</ele>
        <time>2023-05-19T11:49:54Z</time>
      </trkpt>
      <trkpt lat="44.76574" lon="5.04758">
        <ele>419.27</ele>
        <time>2023-05-19T11:49:58Z</time>
      </trkpt>
      <trkpt lat="44.76577" lon="5.04756">
        <ele>418.79</ele>
        <time>2023-05-19T11:50:00Z</time>
      </trkpt>
      <trkpt lat="44.76579" lon="5.04754">
        <ele>418.79</ele>
        <time>2023-05-19T11:50:02Z</time>
      </trkpt>
      <trkpt lat="44.76596" lon="5.04746">
        <ele>415.43</ele>
        <time>2023-05-19T11:50:18Z</time>
      </trkpt>
      <trkpt lat="44.76603" lon="5.04736">
        <ele>413.5</ele>
        <time>2023-05-19T11:50:27Z</time>
      </trkpt>
      <trkpt lat="44.76615" lon="5.04725">
        <ele>411.1</ele>
        <time>2023-05-19T11:50:41Z</time>
      </trkpt>
      <trkpt lat="44.76626" lon="5.04719">
        <ele>408.7</ele>
        <time>2023-05-19T11:50:53Z</time>
      </trkpt>
      <trkpt lat="44.76641" lon="5.04714">
        <ele>406.29</ele>
        <time>2023-05-19T11:51:08Z</time>
      </trkpt>
      <trkpt lat="44.76656" lon="5.04703">
        <ele>402.45</ele>
        <time>2023-05-19T11:51:25Z</time>
      </trkpt>
      <trkpt lat="44.76657" lon="5.04701">
        <ele>401.97</ele>
        <time>2023-05-19T11:51:27Z</time>
      </trkpt>
      <trkpt lat="44.76663" lon="5.04694">
        <ele>400.53</ele>
        <time>2023-05-19T11:51:33Z</time>
      </trkpt>
      <trkpt lat="44.76668" lon="5.04688">
        <ele>400.05</ele>
        <time>2023-05-19T11:51:38Z</time>
      </trkpt>
      <trkpt lat="44.76682" lon="5.04678">
        <ele>397.64</ele>
        <time>2023-05-19T11:51:54Z</time>
      </trkpt>
      <trkpt lat="44.76692" lon="5.04672">
        <ele>394.28</ele>
        <time>2023-05-19T11:52:05Z</time>
      </trkpt>
      <trkpt lat="44.7671" lon="5.04661">
        <ele>393.32</ele>
        <time>2023-05-19T11:52:21Z</time>
      </trkpt>
      <trkpt lat="44.76733" lon="5.04655">
        <ele>391.39</ele>
        <time>2023-05-19T11:52:39Z</time>
      </trkpt>
      <trkpt lat="44.76752" lon="5.04648">
        <ele>390.91</ele>
        <time>2023-05-19T11:52:55Z</time>
      </trkpt>
      <trkpt lat="44.76773" lon="5.04642">
        <ele>390.91</ele>
        <time>2023-05-19T11:53:11Z</time>
      </trkpt>
      <trkpt lat="44.76796" lon="5.04637">
        <ele>390.43</ele>
        <time>2023-05-19T11:53:29Z</time>
      </trkpt>
      <trkpt lat="44.76804" lon="5.04636">
        <ele>389.47</ele>
        <time>2023-05-19T11:53:36Z</time>
      </trkpt>
      <trkpt lat="44.76824" lon="5.04634">
        <ele>389.47</ele>
        <time>2023-05-19T11:53:52Z</time>
      </trkpt>
      <trkpt lat="44.7683" lon="5.04633">
        <ele>389.47</ele>
        <time>2023-05-19T11:53:57Z</time>
      </trkpt>
      <trkpt lat="44.76832" lon="5.04633">
        <ele>389.47</ele>
        <time>2023-05-19T11:53:59Z</time>
      </trkpt>
      <trkpt lat="44.76852" lon="5.0463">
        <ele>390.43</ele>
        <time>2023-05-19T11:54:15Z</time>
      </trkpt>
      <trkpt lat="44.76869" lon="5.04626">
        <ele>390.91</ele>
        <time>2023-05-19T11:54:30Z</time>
      </trkpt>
      <trkpt lat="44.76883" lon="5.04624">
        <ele>391.87</ele>
        <time>2023-05-19T11:54:43Z</time>
      </trkpt>
      <trkpt lat="44.76892" lon="5.04619">
        <ele>392.36</ele>
        <time>2023-05-19T11:54:50Z</time>
      </trkpt>
      <trkpt lat="44.76909" lon="5.04606">
        <ele>392.36</ele>
        <time>2023-05-19T11:55:05Z</time>
      </trkpt>
      <trkpt lat="44.76923" lon="5.04596">
        <ele>390.91</ele>
        <time>2023-05-19T11:55:19Z</time>
      </trkpt>
      <trkpt lat="44.76943" lon="5.04584">
        <ele>387.55</ele>
        <time>2023-05-19T11:55:36Z</time>
      </trkpt>
      <trkpt lat="44.76953" lon="5.04578">
        <ele>385.15</ele>
        <time>2023-05-19T11:55:46Z</time>
      </trkpt>
      <trkpt lat="44.76965" lon="5.0457">
        <ele>382.74</ele>
        <time>2023-05-19T11:55:59Z</time>
      </trkpt>
      <trkpt lat="44.76978" lon="5.04555">
        <ele>379.86</ele>
        <time>2023-05-19T11:56:13Z</time>
      </trkpt>
      <trkpt lat="44.76982" lon="5.04549">
        <ele>379.38</ele>
        <time>2023-05-19T11:56:18Z</time>
      </trkpt>
      <trkpt lat="44.77" lon="5.04541">
        <ele>376.01</ele>
        <time>2023-05-19T11:56:34Z</time>
      </trkpt>
      <trkpt lat="44.77016" lon="5.04538">
        <ele>374.09</ele>
        <time>2023-05-19T11:56:50Z</time>
      </trkpt>
      <trkpt lat="44.77013" lon="5.04532">
        <ele>374.09</ele>
        <time>2023-05-19T11:57:07Z</time>
      </trkpt>
      <trkpt lat="44.77011" lon="5.0453">
        <ele>375.53</ele>
        <time>2023-05-19T11:57:20Z</time>
      </trkpt>
      <trkpt lat="44.77011" lon="5.0453">
        <ele>375.05</ele>
        <time>2023-05-19T11:57:45Z</time>
      </trkpt>
      <trkpt lat="44.77011" lon="5.04531">
        <ele>375.05</ele>
        <time>2023-05-19T11:57:59Z</time>
      </trkpt>
      <trkpt lat="44.77008" lon="5.04519">
        <ele>375.05</ele>
        <time>2023-05-19T11:58:10Z</time>
      </trkpt>
      <trkpt lat="44.77003" lon="5.04499">
        <ele>375.05</ele>
        <time>2023-05-19T11:58:23Z</time>
      </trkpt>
      <trkpt lat="44.77004" lon="5.04487">
        <ele>375.05</ele>
        <time>2023-05-19T11:58:30Z</time>
      </trkpt>
      <trkpt lat="44.77006" lon="5.04462">
        <ele>373.13</ele>
        <time>2023-05-19T11:58:44Z</time>
      </trkpt>
      <trkpt lat="44.77008" lon="5.04447">
        <ele>371.69</ele>
        <time>2023-05-19T11:58:56Z</time>
      </trkpt>
      <trkpt lat="44.77007" lon="5.0442">
        <ele>369.76</ele>
        <time>2023-05-19T11:59:11Z</time>
      </trkpt>
      <trkpt lat="44.77013" lon="5.04392">
        <ele>367.84</ele>
        <time>2023-05-19T11:59:28Z</time>
      </trkpt>
      <trkpt lat="44.77016" lon="5.04384">
        <ele>367.36</ele>
        <time>2023-05-19T11:59:34Z</time>
      </trkpt>
      <trkpt lat="44.77018" lon="5.04379">
        <ele>367.36</ele>
        <time>2023-05-19T11:59:37Z</time>
      </trkpt>
      <trkpt lat="44.77021" lon="5.0437">
        <ele>366.88</ele>
        <time>2023-05-19T11:59:43Z</time>
      </trkpt>
      <trkpt lat="44.77033" lon="5.04349">
        <ele>365.92</ele>
        <time>2023-05-19T11:59:59Z</time>
      </trkpt>
      <trkpt lat="44.77037" lon="5.04341">
        <ele>364.96</ele>
        <time>2023-05-19T12:00:04Z</time>
      </trkpt>
      <trkpt lat="44.77046" lon="5.04315">
        <ele>363.52</ele>
        <time>2023-05-19T12:00:19Z</time>
      </trkpt>
      <trkpt lat="44.77049" lon="5.04308">
        <ele>363.52</ele>
        <time>2023-05-19T12:00:23Z</time>
      </trkpt>
      <trkpt lat="44.77062" lon="5.04276">
        <ele>362.07</ele>
        <time>2023-05-19T12:00:41Z</time>
      </trkpt>
      <trkpt lat="44.77063" lon="5.04274">
        <ele>362.07</ele>
        <time>2023-05-19T12:00:43Z</time>
      </trkpt>
      <trkpt lat="44.77073" lon="5.0426">
        <ele>360.63</ele>
        <time>2023-05-19T12:00:54Z</time>
      </trkpt>
      <trkpt lat="44.77087" lon="5.0424">
        <ele>358.71</ele>
        <time>2023-05-19T12:01:11Z</time>
      </trkpt>
      <trkpt lat="44.77096" lon="5.04226">
        <ele>358.23</ele>
        <time>2023-05-19T12:01:23Z</time>
      </trkpt>
      <trkpt lat="44.77111" lon="5.04204">
        <ele>357.27</ele>
        <time>2023-05-19T12:01:38Z</time>
      </trkpt>
      <trkpt lat="44.77124" lon="5.04186">
        <ele>357.27</ele>
        <time>2023-05-19T12:01:53Z</time>
      </trkpt>
      <trkpt lat="44.77131" lon="5.04176">
        <ele>358.71</ele>
        <time>2023-05-19T12:02:01Z</time>
      </trkpt>
      <trkpt lat="44.77144" lon="5.04156">
        <ele>360.15</ele>
        <time>2023-05-19T12:02:15Z</time>
      </trkpt>
      <trkpt lat="44.77154" lon="5.04143">
        <ele>361.59</ele>
        <time>2023-05-19T12:02:28Z</time>
      </trkpt>
      <trkpt lat="44.77151" lon="5.04125">
        <ele>361.11</ele>
        <time>2023-05-19T12:02:44Z</time>
      </trkpt>
      <trkpt lat="44.77149" lon="5.04111">
        <ele>360.63</ele>
        <time>2023-05-19T12:02:54Z</time>
      </trkpt>
      <trkpt lat="44.77143" lon="5.04085">
        <ele>359.67</ele>
        <time>2023-05-19T12:03:10Z</time>
      </trkpt>
      <trkpt lat="44.77142" lon="5.04074">
        <ele>357.75</ele>
        <time>2023-05-19T12:03:17Z</time>
      </trkpt>
      <trkpt lat="44.77142" lon="5.04058">
        <ele>354.86</ele>
        <time>2023-05-19T12:03:27Z</time>
      </trkpt>
      <trkpt lat="44.77145" lon="5.04036">
        <ele>351.98</ele>
        <time>2023-05-19T12:03:43Z</time>
      </trkpt>
      <trkpt lat="44.77146" lon="5.04011">
        <ele>348.62</ele>
        <time>2023-05-19T12:03:59Z</time>
      </trkpt>
      <trkpt lat="44.77146" lon="5.03998">
        <ele>346.21</ele>
        <time>2023-05-19T12:04:09Z</time>
      </trkpt>
      <trkpt lat="44.77151" lon="5.03981">
        <ele>343.33</ele>
        <time>2023-05-19T12:04:24Z</time>
      </trkpt>
      <trkpt lat="44.77153" lon="5.03965">
        <ele>339.96</ele>
        <time>2023-05-19T12:04:36Z</time>
      </trkpt>
      <trkpt lat="44.77153" lon="5.03958">
        <ele>339</ele>
        <time>2023-05-19T12:04:41Z</time>
      </trkpt>
      <trkpt lat="44.77153" lon="5.03934">
        <ele>335.16</ele>
        <time>2023-05-19T12:04:58Z</time>
      </trkpt>
      <trkpt lat="44.77147" lon="5.03923">
        <ele>333.23</ele>
        <time>2023-05-19T12:05:12Z</time>
      </trkpt>
      <trkpt lat="44.77141" lon="5.03912">
        <ele>330.35</ele>
        <time>2023-05-19T12:05:24Z</time>
      </trkpt>
      <trkpt lat="44.77138" lon="5.03894">
        <ele>326.99</ele>
        <time>2023-05-19T12:05:40Z</time>
      </trkpt>
      <trkpt lat="44.77138" lon="5.03874">
        <ele>324.58</ele>
        <time>2023-05-19T12:05:55Z</time>
      </trkpt>
      <trkpt lat="44.77137" lon="5.0385">
        <ele>322.18</ele>
        <time>2023-05-19T12:06:12Z</time>
      </trkpt>
      <trkpt lat="44.77136" lon="5.03834">
        <ele>320.74</ele>
        <time>2023-05-19T12:07:47Z</time>
      </trkpt>
      <trkpt lat="44.77134" lon="5.03816">
        <ele>317.37</ele>
        <time>2023-05-19T12:08:05Z</time>
      </trkpt>
      <trkpt lat="44.77133" lon="5.03814">
        <ele>316.89</ele>
        <time>2023-05-19T12:08:07Z</time>
      </trkpt>
      <trkpt lat="44.77123" lon="5.03795">
        <ele>314.01</ele>
        <time>2023-05-19T12:08:20Z</time>
      </trkpt>
      <trkpt lat="44.77121" lon="5.03768">
        <ele>311.12</ele>
        <time>2023-05-19T12:08:35Z</time>
      </trkpt>
      <trkpt lat="44.77118" lon="5.03747">
        <ele>307.76</ele>
        <time>2023-05-19T12:08:47Z</time>
      </trkpt>
      <trkpt lat="44.77111" lon="5.03724">
        <ele>304.39</ele>
        <time>2023-05-19T12:09:01Z</time>
      </trkpt>
      <trkpt lat="44.77098" lon="5.03707">
        <ele>301.03</ele>
        <time>2023-05-19T12:09:15Z</time>
      </trkpt>
      <trkpt lat="44.77078" lon="5.03688">
        <ele>298.63</ele>
        <time>2023-05-19T12:09:31Z</time>
      </trkpt>
      <trkpt lat="44.77063" lon="5.03659">
        <ele>295.74</ele>
        <time>2023-05-19T12:09:47Z</time>
      </trkpt>
      <trkpt lat="44.7704" lon="5.03646">
        <ele>294.78</ele>
        <time>2023-05-19T12:10:04Z</time>
      </trkpt>
      <trkpt lat="44.77018" lon="5.03645">
        <ele>294.3</ele>
        <time>2023-05-19T12:10:20Z</time>
      </trkpt>
      <trkpt lat="44.77015" lon="5.03645">
        <ele>294.3</ele>
        <time>2023-05-19T12:10:23Z</time>
      </trkpt>
      <trkpt lat="44.76995" lon="5.03641">
        <ele>292.86</ele>
        <time>2023-05-19T12:10:37Z</time>
      </trkpt>
      <trkpt lat="44.76982" lon="5.03638">
        <ele>291.9</ele>
        <time>2023-05-19T12:10:47Z</time>
      </trkpt>
      <trkpt lat="44.76974" lon="5.03637">
        <ele>290.46</ele>
        <time>2023-05-19T12:10:53Z</time>
      </trkpt>
      <trkpt lat="44.76967" lon="5.03637">
        <ele>289.97</ele>
        <time>2023-05-19T12:10:58Z</time>
      </trkpt>
      <trkpt lat="44.76946" lon="5.03631">
        <ele>287.57</ele>
        <time>2023-05-19T12:11:15Z</time>
      </trkpt>
      <trkpt lat="44.76935" lon="5.03626">
        <ele>285.17</ele>
        <time>2023-05-19T12:11:26Z</time>
      </trkpt>
      <trkpt lat="44.76928" lon="5.03617">
        <ele>282.77</ele>
        <time>2023-05-19T12:11:36Z</time>
      </trkpt>
      <trkpt lat="44.76921" lon="5.03597">
        <ele>279.4</ele>
        <time>2023-05-19T12:11:49Z</time>
      </trkpt>
      <trkpt lat="44.76907" lon="5.03573">
        <ele>278.92</ele>
        <time>2023-05-19T12:12:06Z</time>
      </trkpt>
      <trkpt lat="44.76892" lon="5.0356">
        <ele>278.44</ele>
        <time>2023-05-19T12:12:21Z</time>
      </trkpt>
      <trkpt lat="44.76886" lon="5.03553">
        <ele>278.44</ele>
        <time>2023-05-19T12:12:27Z</time>
      </trkpt>
      <trkpt lat="44.76861" lon="5.03535">
        <ele>278.44</ele>
        <time>2023-05-19T12:12:45Z</time>
      </trkpt>
      <trkpt lat="44.7684" lon="5.03527">
        <ele>279.88</ele>
        <time>2023-05-19T12:13:02Z</time>
      </trkpt>
      <trkpt lat="44.76821" lon="5.03508">
        <ele>280.36</ele>
        <time>2023-05-19T12:13:20Z</time>
      </trkpt>
      <trkpt lat="44.7681" lon="5.03492">
        <ele>281.8</ele>
        <time>2023-05-19T12:13:34Z</time>
      </trkpt>
      <trkpt lat="44.768" lon="5.03469">
        <ele>282.77</ele>
        <time>2023-05-19T12:13:48Z</time>
      </trkpt>
      <trkpt lat="44.76793" lon="5.03446">
        <ele>283.73</ele>
        <time>2023-05-19T12:14:03Z</time>
      </trkpt>
      <trkpt lat="44.76793" lon="5.03428">
        <ele>284.21</ele>
        <time>2023-05-19T12:14:17Z</time>
      </trkpt>
      <trkpt lat="44.76795" lon="5.03428">
        <ele>287.09</ele>
        <time>2023-05-19T12:14:27Z</time>
      </trkpt>
      <trkpt lat="44.76799" lon="5.0343">
        <ele>289.01</ele>
        <time>2023-05-19T12:14:35Z</time>
      </trkpt>
      <trkpt lat="44.76806" lon="5.03442">
        <ele>290.94</ele>
        <time>2023-05-19T12:14:45Z</time>
      </trkpt>
      <trkpt lat="44.76809" lon="5.03442">
        <ele>292.86</ele>
        <time>2023-05-19T12:14:52Z</time>
      </trkpt>
      <trkpt lat="44.76811" lon="5.03439">
        <ele>293.34</ele>
        <time>2023-05-19T12:14:56Z</time>
      </trkpt>
      <trkpt lat="44.76819" lon="5.03437">
        <ele>295.74</ele>
        <time>2023-05-19T12:15:11Z</time>
      </trkpt>
      <trkpt lat="44.76821" lon="5.03437">
        <ele>293.82</ele>
        <time>2023-05-19T12:15:21Z</time>
      </trkpt>
      <trkpt lat="44.76822" lon="5.03438">
        <ele>295.26</ele>
        <time>2023-05-19T12:15:46Z</time>
      </trkpt>
      <trkpt lat="44.7683" lon="5.03447">
        <ele>295.26</ele>
        <time>2023-05-19T12:16:01Z</time>
      </trkpt>
      <trkpt lat="44.76832" lon="5.03449">
        <ele>295.74</ele>
        <time>2023-05-19T12:16:14Z</time>
      </trkpt>
      <trkpt lat="44.76836" lon="5.03453">
        <ele>297.18</ele>
        <time>2023-05-19T12:18:22Z</time>
      </trkpt>
      <trkpt lat="44.76835" lon="5.0346">
        <ele>297.18</ele>
        <time>2023-05-19T12:18:44Z</time>
      </trkpt>
      <trkpt lat="44.76835" lon="5.0346">
        <ele>297.67</ele>
        <time>2023-05-19T12:19:11Z</time>
      </trkpt>
      <trkpt lat="44.76833" lon="5.03458">
        <ele>296.22</ele>
        <time>2023-05-19T12:19:18Z</time>
      </trkpt>
      <trkpt lat="44.76828" lon="5.03451">
        <ele>295.74</ele>
        <time>2023-05-19T12:19:31Z</time>
      </trkpt>
      <trkpt lat="44.76818" lon="5.03442">
        <ele>294.78</ele>
        <time>2023-05-19T12:19:47Z</time>
      </trkpt>
      <trkpt lat="44.76807" lon="5.0344">
        <ele>293.34</ele>
        <time>2023-05-19T12:20:01Z</time>
      </trkpt>
      <trkpt lat="44.76809" lon="5.03438">
        <ele>293.34</ele>
        <time>2023-05-19T12:20:27Z</time>
      </trkpt>
      <trkpt lat="44.7681" lon="5.03435">
        <ele>292.86</ele>
        <time>2023-05-19T12:20:39Z</time>
      </trkpt>
      <trkpt lat="44.76811" lon="5.03421">
        <ele>294.3</ele>
        <time>2023-05-19T12:20:49Z</time>
      </trkpt>
      <trkpt lat="44.76808" lon="5.03394">
        <ele>294.3</ele>
        <time>2023-05-19T12:21:05Z</time>
      </trkpt>
      <trkpt lat="44.76804" lon="5.03367">
        <ele>294.78</ele>
        <time>2023-05-19T12:21:21Z</time>
      </trkpt>
      <trkpt lat="44.76804" lon="5.03365">
        <ele>294.78</ele>
        <time>2023-05-19T12:21:22Z</time>
      </trkpt>
      <trkpt lat="44.76804" lon="5.03347">
        <ele>292.86</ele>
        <time>2023-05-19T12:21:39Z</time>
      </trkpt>
      <trkpt lat="44.76804" lon="5.03345">
        <ele>293.34</ele>
        <time>2023-05-19T12:24:09Z</time>
      </trkpt>
      <trkpt lat="44.76803" lon="5.03337">
        <ele>292.38</ele>
        <time>2023-05-19T12:24:17Z</time>
      </trkpt>
      <trkpt lat="44.76801" lon="5.03316">
        <ele>289.01</ele>
        <time>2023-05-19T12:24:31Z</time>
      </trkpt>
      <trkpt lat="44.76797" lon="5.03317">
        <ele>288.05</ele>
        <time>2023-05-19T12:24:35Z</time>
      </trkpt>
      <trkpt lat="44.76787" lon="5.03313">
        <ele>286.61</ele>
        <time>2023-05-19T12:24:50Z</time>
      </trkpt>
      <trkpt lat="44.76783" lon="5.03319">
        <ele>285.17</ele>
        <time>2023-05-19T12:25:07Z</time>
      </trkpt>
      <trkpt lat="44.76782" lon="5.0332">
        <ele>285.17</ele>
        <time>2023-05-19T12:25:33Z</time>
      </trkpt>
      <trkpt lat="44.76778" lon="5.03318">
        <ele>283.73</ele>
        <time>2023-05-19T12:25:48Z</time>
      </trkpt>
      <trkpt lat="44.76774" lon="5.03324">
        <ele>283.73</ele>
        <time>2023-05-19T12:26:59Z</time>
      </trkpt>
      <trkpt lat="44.76774" lon="5.03318">
        <ele>283.73</ele>
        <time>2023-05-19T12:27:21Z</time>
      </trkpt>
      <trkpt lat="44.76776" lon="5.03315">
        <ele>283.73</ele>
        <time>2023-05-19T12:27:25Z</time>
      </trkpt>
      <trkpt lat="44.76791" lon="5.03297">
        <ele>282.77</ele>
        <time>2023-05-19T12:27:43Z</time>
      </trkpt>
      <trkpt lat="44.76792" lon="5.03296">
        <ele>282.77</ele>
        <time>2023-05-19T12:27:46Z</time>
      </trkpt>
      <trkpt lat="44.76814" lon="5.03298">
        <ele>280.84</ele>
        <time>2023-05-19T12:28:05Z</time>
      </trkpt>
      <trkpt lat="44.7684" lon="5.03297">
        <ele>279.4</ele>
        <time>2023-05-19T12:28:24Z</time>
      </trkpt>
      <trkpt lat="44.76859" lon="5.03307">
        <ele>278.92</ele>
        <time>2023-05-19T12:28:40Z</time>
      </trkpt>
      <trkpt lat="44.76864" lon="5.033">
        <ele>278.44</ele>
        <time>2023-05-19T12:28:52Z</time>
      </trkpt>
      <trkpt lat="44.76868" lon="5.03303">
        <ele>277.48</ele>
        <time>2023-05-19T12:28:57Z</time>
      </trkpt>
      <trkpt lat="44.76883" lon="5.03305">
        <ele>277.48</ele>
        <time>2023-05-19T12:29:10Z</time>
      </trkpt>
      <trkpt lat="44.76896" lon="5.033">
        <ele>277</ele>
        <time>2023-05-19T12:29:23Z</time>
      </trkpt>
      <trkpt lat="44.76904" lon="5.03297">
        <ele>276.04</ele>
        <time>2023-05-19T12:29:38Z</time>
      </trkpt>
    </trkseg>
  </trk>
</gpx>